<?xml version="1.0" encoding="UTF-8" standalone="no" ?>
<gpx xmlns="http://www.topografix.com/GPX/1/1" xmlns:xsi="http://www.w3.org/2001/XMLSchema-instance" xsi:schemaLocation="http://www.topografix.com/GPX/1/1 http://www.topografix.com/GPX/1/1/gpx.xsd" version="1.1" creator="VisuGPX - https://www.visugpx.com">
  <metadata>
    <name>m r t 13 05 2015</name>
    <desc><![CDATA[barrage de guerledan]]></desc>
  </metadata>
  <trk>
    <name><![CDATA[m r t 13 05 2015_1]]></name>
    <trkseg>
      <trkpt lat="48.1997" lon="-3.01019">
        <ele>161</ele>
        <time>2015-05-13T07:43:13Z</time>
      </trkpt>
      <trkpt lat="48.19935" lon="-3.00979">
        <ele>158</ele>
        <time>2015-05-13T07:43:50Z</time>
      </trkpt>
      <trkpt lat="48.19928" lon="-3.0098">
        <ele>156</ele>
        <time>2015-05-13T07:44:00Z</time>
      </trkpt>
      <trkpt lat="48.19927" lon="-3.00976">
        <ele>154</ele>
        <time>2015-05-13T07:44:35Z</time>
      </trkpt>
      <trkpt lat="48.19921" lon="-3.00974">
        <ele>153</ele>
        <time>2015-05-13T07:44:42Z</time>
      </trkpt>
      <trkpt lat="48.19922" lon="-3.00972">
        <ele>153</ele>
        <time>2015-05-13T07:44:44Z</time>
      </trkpt>
      <trkpt lat="48.19919" lon="-3.00968">
        <ele>152</ele>
        <time>2015-05-13T07:44:50Z</time>
      </trkpt>
      <trkpt lat="48.19811" lon="-3.00928">
        <ele>139</ele>
        <time>2015-05-13T07:46:17Z</time>
      </trkpt>
      <trkpt lat="48.19777" lon="-3.00931">
        <ele>135</ele>
        <time>2015-05-13T07:46:41Z</time>
      </trkpt>
      <trkpt lat="48.19736" lon="-3.0118">
        <ele>115</ele>
        <time>2015-05-13T07:49:00Z</time>
      </trkpt>
      <trkpt lat="48.19737" lon="-3.01183">
        <ele>115</ele>
        <time>2015-05-13T07:49:02Z</time>
      </trkpt>
      <trkpt lat="48.19749" lon="-3.01189">
        <ele>115</ele>
        <time>2015-05-13T07:49:15Z</time>
      </trkpt>
      <trkpt lat="48.19744" lon="-3.01287">
        <ele>122</ele>
        <time>2015-05-13T07:50:43Z</time>
      </trkpt>
      <trkpt lat="48.19743" lon="-3.01279">
        <ele>122</ele>
        <time>2015-05-13T07:51:30Z</time>
      </trkpt>
      <trkpt lat="48.19743" lon="-3.01279">
        <ele>122</ele>
        <time>2015-05-13T07:53:07Z</time>
      </trkpt>
      <trkpt lat="48.19744" lon="-3.01279">
        <ele>122</ele>
        <time>2015-05-13T07:54:14Z</time>
      </trkpt>
      <trkpt lat="48.19743" lon="-3.01281">
        <ele>122</ele>
        <time>2015-05-13T07:54:16Z</time>
      </trkpt>
      <trkpt lat="48.19755" lon="-3.01205">
        <ele>121</ele>
        <time>2015-05-13T07:55:51Z</time>
      </trkpt>
      <trkpt lat="48.19785" lon="-3.01204">
        <ele>120</ele>
        <time>2015-05-13T07:56:12Z</time>
      </trkpt>
      <trkpt lat="48.19805" lon="-3.01242">
        <ele>122</ele>
        <time>2015-05-13T07:56:52Z</time>
      </trkpt>
      <trkpt lat="48.19808" lon="-3.01242">
        <ele>126</ele>
        <time>2015-05-13T07:56:58Z</time>
      </trkpt>
      <trkpt lat="48.19821" lon="-3.01217">
        <ele>129</ele>
        <time>2015-05-13T07:57:22Z</time>
      </trkpt>
      <trkpt lat="48.19823" lon="-3.01218">
        <ele>130</ele>
        <time>2015-05-13T07:57:24Z</time>
      </trkpt>
      <trkpt lat="48.19834" lon="-3.01289">
        <ele>130</ele>
        <time>2015-05-13T07:58:08Z</time>
      </trkpt>
      <trkpt lat="48.19836" lon="-3.01313">
        <ele>134</ele>
        <time>2015-05-13T07:59:02Z</time>
      </trkpt>
      <trkpt lat="48.1984" lon="-3.0131">
        <ele>134</ele>
        <time>2015-05-13T07:59:07Z</time>
      </trkpt>
      <trkpt lat="48.19845" lon="-3.01313">
        <ele>134</ele>
        <time>2015-05-13T07:59:12Z</time>
      </trkpt>
      <trkpt lat="48.19855" lon="-3.01367">
        <ele>134</ele>
        <time>2015-05-13T07:59:45Z</time>
      </trkpt>
      <trkpt lat="48.19851" lon="-3.0146">
        <ele>127</ele>
        <time>2015-05-13T08:00:52Z</time>
      </trkpt>
      <trkpt lat="48.19846" lon="-3.01461">
        <ele>127</ele>
        <time>2015-05-13T08:01:20Z</time>
      </trkpt>
      <trkpt lat="48.19845" lon="-3.01464">
        <ele>127</ele>
        <time>2015-05-13T08:01:39Z</time>
      </trkpt>
      <trkpt lat="48.19846" lon="-3.01464">
        <ele>127</ele>
        <time>2015-05-13T08:01:51Z</time>
      </trkpt>
      <trkpt lat="48.19847" lon="-3.01465">
        <ele>127</ele>
        <time>2015-05-13T08:01:53Z</time>
      </trkpt>
      <trkpt lat="48.19853" lon="-3.01462">
        <ele>127</ele>
        <time>2015-05-13T08:02:11Z</time>
      </trkpt>
      <trkpt lat="48.19857" lon="-3.0145">
        <ele>127</ele>
        <time>2015-05-13T08:02:21Z</time>
      </trkpt>
      <trkpt lat="48.19858" lon="-3.01357">
        <ele>132</ele>
        <time>2015-05-13T08:03:18Z</time>
      </trkpt>
      <trkpt lat="48.1986" lon="-3.01355">
        <ele>132</ele>
        <time>2015-05-13T08:03:21Z</time>
      </trkpt>
      <trkpt lat="48.19862" lon="-3.01358">
        <ele>132</ele>
        <time>2015-05-13T08:03:26Z</time>
      </trkpt>
      <trkpt lat="48.19884" lon="-3.01333">
        <ele>132</ele>
        <time>2015-05-13T08:04:05Z</time>
      </trkpt>
      <trkpt lat="48.19898" lon="-3.01339">
        <ele>133</ele>
        <time>2015-05-13T08:04:19Z</time>
      </trkpt>
      <trkpt lat="48.19899" lon="-3.01338">
        <ele>133</ele>
        <time>2015-05-13T08:04:30Z</time>
      </trkpt>
      <trkpt lat="48.19901" lon="-3.01337">
        <ele>139</ele>
        <time>2015-05-13T08:04:42Z</time>
      </trkpt>
      <trkpt lat="48.19914" lon="-3.01359">
        <ele>139</ele>
        <time>2015-05-13T08:05:17Z</time>
      </trkpt>
      <trkpt lat="48.19944" lon="-3.01356">
        <ele>139</ele>
        <time>2015-05-13T08:05:38Z</time>
      </trkpt>
      <trkpt lat="48.19968" lon="-3.01332">
        <ele>139</ele>
        <time>2015-05-13T08:06:04Z</time>
      </trkpt>
      <trkpt lat="48.19979" lon="-3.01335">
        <ele>141</ele>
        <time>2015-05-13T08:06:23Z</time>
      </trkpt>
      <trkpt lat="48.2" lon="-3.01392">
        <ele>144</ele>
        <time>2015-05-13T08:06:59Z</time>
      </trkpt>
      <trkpt lat="48.20007" lon="-3.01396">
        <ele>143</ele>
        <time>2015-05-13T08:07:15Z</time>
      </trkpt>
      <trkpt lat="48.2001" lon="-3.01395">
        <ele>143</ele>
        <time>2015-05-13T08:07:24Z</time>
      </trkpt>
      <trkpt lat="48.20064" lon="-3.01415">
        <ele>145</ele>
        <time>2015-05-13T08:08:16Z</time>
      </trkpt>
      <trkpt lat="48.20079" lon="-3.01412">
        <ele>145</ele>
        <time>2015-05-13T08:08:31Z</time>
      </trkpt>
      <trkpt lat="48.20078" lon="-3.01422">
        <ele>145</ele>
        <time>2015-05-13T08:08:58Z</time>
      </trkpt>
      <trkpt lat="48.2008" lon="-3.01422">
        <ele>146</ele>
        <time>2015-05-13T08:09:10Z</time>
      </trkpt>
      <trkpt lat="48.20079" lon="-3.01422">
        <ele>149</ele>
        <time>2015-05-13T08:09:34Z</time>
      </trkpt>
      <trkpt lat="48.2008" lon="-3.01421">
        <ele>149</ele>
        <time>2015-05-13T08:09:38Z</time>
      </trkpt>
      <trkpt lat="48.20083" lon="-3.01417">
        <ele>149</ele>
        <time>2015-05-13T08:10:10Z</time>
      </trkpt>
      <trkpt lat="48.20075" lon="-3.01422">
        <ele>147</ele>
        <time>2015-05-13T08:10:52Z</time>
      </trkpt>
      <trkpt lat="48.20078" lon="-3.0142">
        <ele>146</ele>
        <time>2015-05-13T08:11:07Z</time>
      </trkpt>
      <trkpt lat="48.20078" lon="-3.01422">
        <ele>146</ele>
        <time>2015-05-13T08:11:10Z</time>
      </trkpt>
      <trkpt lat="48.2008" lon="-3.01422">
        <ele>149</ele>
        <time>2015-05-13T08:11:25Z</time>
      </trkpt>
      <trkpt lat="48.20109" lon="-3.01498">
        <ele>131</ele>
        <time>2015-05-13T08:12:28Z</time>
      </trkpt>
      <trkpt lat="48.20116" lon="-3.01497">
        <ele>131</ele>
        <time>2015-05-13T08:12:34Z</time>
      </trkpt>
      <trkpt lat="48.20119" lon="-3.015">
        <ele>130</ele>
        <time>2015-05-13T08:12:38Z</time>
      </trkpt>
      <trkpt lat="48.20137" lon="-3.01479">
        <ele>123</ele>
        <time>2015-05-13T08:13:14Z</time>
      </trkpt>
      <trkpt lat="48.20139" lon="-3.01481">
        <ele>120</ele>
        <time>2015-05-13T08:13:47Z</time>
      </trkpt>
      <trkpt lat="48.2016" lon="-3.01403">
        <ele>123</ele>
        <time>2015-05-13T08:14:42Z</time>
      </trkpt>
      <trkpt lat="48.20302" lon="-3.01399">
        <ele>122</ele>
        <time>2015-05-13T08:16:37Z</time>
      </trkpt>
      <trkpt lat="48.20376" lon="-3.01285">
        <ele>131</ele>
        <time>2015-05-13T08:18:05Z</time>
      </trkpt>
      <trkpt lat="48.20446" lon="-3.0128">
        <ele>131</ele>
        <time>2015-05-13T08:19:08Z</time>
      </trkpt>
      <trkpt lat="48.20477" lon="-3.01308">
        <ele>131</ele>
        <time>2015-05-13T08:19:47Z</time>
      </trkpt>
      <trkpt lat="48.205" lon="-3.01294">
        <ele>125</ele>
        <time>2015-05-13T08:20:17Z</time>
      </trkpt>
      <trkpt lat="48.20499" lon="-3.01305">
        <ele>121</ele>
        <time>2015-05-13T08:20:43Z</time>
      </trkpt>
      <trkpt lat="48.20501" lon="-3.01305">
        <ele>121</ele>
        <time>2015-05-13T08:20:48Z</time>
      </trkpt>
      <trkpt lat="48.20503" lon="-3.01303">
        <ele>121</ele>
        <time>2015-05-13T08:20:53Z</time>
      </trkpt>
      <trkpt lat="48.20512" lon="-3.01289">
        <ele>121</ele>
        <time>2015-05-13T08:21:19Z</time>
      </trkpt>
      <trkpt lat="48.20513" lon="-3.01289">
        <ele>121</ele>
        <time>2015-05-13T08:21:21Z</time>
      </trkpt>
      <trkpt lat="48.20515" lon="-3.01292">
        <ele>124</ele>
        <time>2015-05-13T08:21:24Z</time>
      </trkpt>
      <trkpt lat="48.20584" lon="-3.01277">
        <ele>127</ele>
        <time>2015-05-13T08:22:29Z</time>
      </trkpt>
      <trkpt lat="48.20604" lon="-3.01309">
        <ele>127</ele>
        <time>2015-05-13T08:23:25Z</time>
      </trkpt>
      <trkpt lat="48.20606" lon="-3.01308">
        <ele>125</ele>
        <time>2015-05-13T08:23:37Z</time>
      </trkpt>
      <trkpt lat="48.20611" lon="-3.01309">
        <ele>123</ele>
        <time>2015-05-13T08:23:44Z</time>
      </trkpt>
      <trkpt lat="48.20612" lon="-3.0131">
        <ele>123</ele>
        <time>2015-05-13T08:23:46Z</time>
      </trkpt>
      <trkpt lat="48.20647" lon="-3.01315">
        <ele>121</ele>
        <time>2015-05-13T08:24:21Z</time>
      </trkpt>
      <trkpt lat="48.20713" lon="-3.01407">
        <ele>126</ele>
        <time>2015-05-13T08:25:44Z</time>
      </trkpt>
      <trkpt lat="48.20718" lon="-3.01406">
        <ele>126</ele>
        <time>2015-05-13T08:25:53Z</time>
      </trkpt>
      <trkpt lat="48.20722" lon="-3.01408">
        <ele>126</ele>
        <time>2015-05-13T08:26:00Z</time>
      </trkpt>
      <trkpt lat="48.20722" lon="-3.01407">
        <ele>126</ele>
        <time>2015-05-13T08:26:03Z</time>
      </trkpt>
      <trkpt lat="48.2072" lon="-3.01404">
        <ele>129</ele>
        <time>2015-05-13T08:26:13Z</time>
      </trkpt>
      <trkpt lat="48.2072" lon="-3.01408">
        <ele>131</ele>
        <time>2015-05-13T08:26:24Z</time>
      </trkpt>
      <trkpt lat="48.20718" lon="-3.01407">
        <ele>131</ele>
        <time>2015-05-13T08:26:27Z</time>
      </trkpt>
      <trkpt lat="48.2072" lon="-3.0141">
        <ele>129</ele>
        <time>2015-05-13T08:26:44Z</time>
      </trkpt>
      <trkpt lat="48.20721" lon="-3.01402">
        <ele>130</ele>
        <time>2015-05-13T08:27:15Z</time>
      </trkpt>
      <trkpt lat="48.20719" lon="-3.01402">
        <ele>130</ele>
        <time>2015-05-13T08:27:21Z</time>
      </trkpt>
      <trkpt lat="48.20718" lon="-3.01403">
        <ele>133</ele>
        <time>2015-05-13T08:28:11Z</time>
      </trkpt>
      <trkpt lat="48.20722" lon="-3.01407">
        <ele>133</ele>
        <time>2015-05-13T08:28:19Z</time>
      </trkpt>
      <trkpt lat="48.20732" lon="-3.01393">
        <ele>133</ele>
        <time>2015-05-13T08:28:42Z</time>
      </trkpt>
      <trkpt lat="48.20778" lon="-3.01395">
        <ele>133</ele>
        <time>2015-05-13T08:29:25Z</time>
      </trkpt>
      <trkpt lat="48.20782" lon="-3.0139">
        <ele>135</ele>
        <time>2015-05-13T08:29:30Z</time>
      </trkpt>
      <trkpt lat="48.20793" lon="-3.01354">
        <ele>137</ele>
        <time>2015-05-13T08:29:56Z</time>
      </trkpt>
      <trkpt lat="48.20849" lon="-3.01337">
        <ele>136</ele>
        <time>2015-05-13T08:30:47Z</time>
      </trkpt>
      <trkpt lat="48.20857" lon="-3.01342">
        <ele>136</ele>
        <time>2015-05-13T08:30:54Z</time>
      </trkpt>
      <trkpt lat="48.20857" lon="-3.01312">
        <ele>136</ele>
        <time>2015-05-13T08:31:21Z</time>
      </trkpt>
      <trkpt lat="48.2086" lon="-3.0131">
        <ele>136</ele>
        <time>2015-05-13T08:31:27Z</time>
      </trkpt>
      <trkpt lat="48.20967" lon="-3.01307">
        <ele>124</ele>
        <time>2015-05-13T08:32:49Z</time>
      </trkpt>
      <trkpt lat="48.20979" lon="-3.01139">
        <ele>119</ele>
        <time>2015-05-13T08:35:02Z</time>
      </trkpt>
      <trkpt lat="48.20981" lon="-3.01138">
        <ele>119</ele>
        <time>2015-05-13T08:35:04Z</time>
      </trkpt>
      <trkpt lat="48.21003" lon="-3.01034">
        <ele>116</ele>
        <time>2015-05-13T08:36:02Z</time>
      </trkpt>
      <trkpt lat="48.2127" lon="-3.01182">
        <ele>120</ele>
        <time>2015-05-13T08:39:45Z</time>
      </trkpt>
      <trkpt lat="48.21361" lon="-3.0151">
        <ele>127</ele>
        <time>2015-05-13T08:42:39Z</time>
      </trkpt>
      <trkpt lat="48.2127" lon="-3.0196">
        <ele>118</ele>
        <time>2015-05-13T08:46:44Z</time>
      </trkpt>
      <trkpt lat="48.21272" lon="-3.0196">
        <ele>118</ele>
        <time>2015-05-13T08:46:50Z</time>
      </trkpt>
      <trkpt lat="48.21302" lon="-3.02173">
        <ele>116</ele>
        <time>2015-05-13T08:49:29Z</time>
      </trkpt>
      <trkpt lat="48.21216" lon="-3.02485">
        <ele>118</ele>
        <time>2015-05-13T08:52:27Z</time>
      </trkpt>
      <trkpt lat="48.21033" lon="-3.0249">
        <ele>104</ele>
        <time>2015-05-13T08:54:40Z</time>
      </trkpt>
      <trkpt lat="48.21012" lon="-3.02504">
        <ele>109</ele>
        <time>2015-05-13T08:54:57Z</time>
      </trkpt>
      <trkpt lat="48.2102" lon="-3.02587">
        <ele>122</ele>
        <time>2015-05-13T08:55:45Z</time>
      </trkpt>
      <trkpt lat="48.21014" lon="-3.02587">
        <ele>122</ele>
        <time>2015-05-13T08:55:49Z</time>
      </trkpt>
      <trkpt lat="48.21006" lon="-3.02597">
        <ele>125</ele>
        <time>2015-05-13T08:56:07Z</time>
      </trkpt>
      <trkpt lat="48.21004" lon="-3.02591">
        <ele>127</ele>
        <time>2015-05-13T08:56:16Z</time>
      </trkpt>
      <trkpt lat="48.21003" lon="-3.02591">
        <ele>128</ele>
        <time>2015-05-13T08:56:19Z</time>
      </trkpt>
      <trkpt lat="48.21002" lon="-3.02592">
        <ele>128</ele>
        <time>2015-05-13T08:56:21Z</time>
      </trkpt>
      <trkpt lat="48.20794" lon="-3.02216">
        <ele>118</ele>
        <time>2015-05-13T09:00:39Z</time>
      </trkpt>
      <trkpt lat="48.20777" lon="-3.02129">
        <ele>119</ele>
        <time>2015-05-13T09:01:26Z</time>
      </trkpt>
      <trkpt lat="48.20773" lon="-3.02127">
        <ele>119</ele>
        <time>2015-05-13T09:01:29Z</time>
      </trkpt>
      <trkpt lat="48.20722" lon="-3.02006">
        <ele>118</ele>
        <time>2015-05-13T09:02:47Z</time>
      </trkpt>
      <trkpt lat="48.20725" lon="-3.02004">
        <ele>118</ele>
        <time>2015-05-13T09:02:55Z</time>
      </trkpt>
      <trkpt lat="48.20726" lon="-3.02005">
        <ele>119</ele>
        <time>2015-05-13T09:02:59Z</time>
      </trkpt>
      <trkpt lat="48.2072" lon="-3.02002">
        <ele>119</ele>
        <time>2015-05-13T09:03:05Z</time>
      </trkpt>
      <trkpt lat="48.20702" lon="-3.01956">
        <ele>119</ele>
        <time>2015-05-13T09:03:33Z</time>
      </trkpt>
      <trkpt lat="48.20703" lon="-3.01951">
        <ele>119</ele>
        <time>2015-05-13T09:03:37Z</time>
      </trkpt>
      <trkpt lat="48.20705" lon="-3.01952">
        <ele>119</ele>
        <time>2015-05-13T09:03:39Z</time>
      </trkpt>
      <trkpt lat="48.20714" lon="-3.01928">
        <ele>127</ele>
        <time>2015-05-13T09:04:21Z</time>
      </trkpt>
      <trkpt lat="48.20712" lon="-3.01925">
        <ele>127</ele>
        <time>2015-05-13T09:04:29Z</time>
      </trkpt>
      <trkpt lat="48.20712" lon="-3.01922">
        <ele>127</ele>
        <time>2015-05-13T09:04:37Z</time>
      </trkpt>
      <trkpt lat="48.2071" lon="-3.0192">
        <ele>124</ele>
        <time>2015-05-13T09:04:45Z</time>
      </trkpt>
      <trkpt lat="48.20705" lon="-3.01906">
        <ele>123</ele>
        <time>2015-05-13T09:04:56Z</time>
      </trkpt>
      <trkpt lat="48.20706" lon="-3.01905">
        <ele>123</ele>
        <time>2015-05-13T09:05:01Z</time>
      </trkpt>
      <trkpt lat="48.20683" lon="-3.01811">
        <ele>118</ele>
        <time>2015-05-13T09:05:59Z</time>
      </trkpt>
      <trkpt lat="48.20684" lon="-3.0181">
        <ele>118</ele>
        <time>2015-05-13T09:06:04Z</time>
      </trkpt>
      <trkpt lat="48.20683" lon="-3.01807">
        <ele>118</ele>
        <time>2015-05-13T09:06:09Z</time>
      </trkpt>
      <trkpt lat="48.20681" lon="-3.01807">
        <ele>118</ele>
        <time>2015-05-13T09:06:41Z</time>
      </trkpt>
      <trkpt lat="48.20666" lon="-3.01801">
        <ele>120</ele>
        <time>2015-05-13T09:07:26Z</time>
      </trkpt>
      <trkpt lat="48.20647" lon="-3.01629">
        <ele>121</ele>
        <time>2015-05-13T09:09:40Z</time>
      </trkpt>
      <trkpt lat="48.20639" lon="-3.01603">
        <ele>120</ele>
        <time>2015-05-13T09:10:02Z</time>
      </trkpt>
      <trkpt lat="48.20637" lon="-3.01602">
        <ele>121</ele>
        <time>2015-05-13T09:10:04Z</time>
      </trkpt>
      <trkpt lat="48.20632" lon="-3.01597">
        <ele>123</ele>
        <time>2015-05-13T09:10:14Z</time>
      </trkpt>
      <trkpt lat="48.20623" lon="-3.01571">
        <ele>128</ele>
        <time>2015-05-13T09:10:38Z</time>
      </trkpt>
      <trkpt lat="48.20618" lon="-3.01571">
        <ele>130</ele>
        <time>2015-05-13T09:10:44Z</time>
      </trkpt>
      <trkpt lat="48.20596" lon="-3.01532">
        <ele>128</ele>
        <time>2015-05-13T09:11:29Z</time>
      </trkpt>
      <trkpt lat="48.20591" lon="-3.01531">
        <ele>127</ele>
        <time>2015-05-13T09:11:37Z</time>
      </trkpt>
      <trkpt lat="48.20589" lon="-3.01532">
        <ele>127</ele>
        <time>2015-05-13T09:11:40Z</time>
      </trkpt>
      <trkpt lat="48.20587" lon="-3.0153">
        <ele>127</ele>
        <time>2015-05-13T09:11:43Z</time>
      </trkpt>
      <trkpt lat="48.20576" lon="-3.01531">
        <ele>128</ele>
        <time>2015-05-13T09:11:53Z</time>
      </trkpt>
      <trkpt lat="48.20548" lon="-3.01512">
        <ele>128</ele>
        <time>2015-05-13T09:12:20Z</time>
      </trkpt>
      <trkpt lat="48.20525" lon="-3.01515">
        <ele>129</ele>
        <time>2015-05-13T09:12:37Z</time>
      </trkpt>
      <trkpt lat="48.20511" lon="-3.01508">
        <ele>130</ele>
        <time>2015-05-13T09:12:57Z</time>
      </trkpt>
      <trkpt lat="48.2051" lon="-3.0151">
        <ele>126</ele>
        <time>2015-05-13T09:13:01Z</time>
      </trkpt>
      <trkpt lat="48.20508" lon="-3.01503">
        <ele>124</ele>
        <time>2015-05-13T09:13:12Z</time>
      </trkpt>
      <trkpt lat="48.20509" lon="-3.01504">
        <ele>124</ele>
        <time>2015-05-13T09:13:19Z</time>
      </trkpt>
      <trkpt lat="48.20507" lon="-3.01506">
        <ele>125</ele>
        <time>2015-05-13T09:13:24Z</time>
      </trkpt>
      <trkpt lat="48.20505" lon="-3.01502">
        <ele>127</ele>
        <time>2015-05-13T09:13:26Z</time>
      </trkpt>
      <trkpt lat="48.20507" lon="-3.01502">
        <ele>130</ele>
        <time>2015-05-13T09:13:29Z</time>
      </trkpt>
      <trkpt lat="48.20508" lon="-3.01505">
        <ele>136</ele>
        <time>2015-05-13T09:13:35Z</time>
      </trkpt>
      <trkpt lat="48.20507" lon="-3.01503">
        <ele>138</ele>
        <time>2015-05-13T09:13:40Z</time>
      </trkpt>
      <trkpt lat="48.20512" lon="-3.01516">
        <ele>137</ele>
        <time>2015-05-13T09:14:00Z</time>
      </trkpt>
      <trkpt lat="48.2051" lon="-3.01512">
        <ele>135</ele>
        <time>2015-05-13T09:14:05Z</time>
      </trkpt>
      <trkpt lat="48.20512" lon="-3.01515">
        <ele>132</ele>
        <time>2015-05-13T09:14:10Z</time>
      </trkpt>
      <trkpt lat="48.20512" lon="-3.01517">
        <ele>131</ele>
        <time>2015-05-13T09:14:13Z</time>
      </trkpt>
      <trkpt lat="48.20509" lon="-3.01518">
        <ele>131</ele>
        <time>2015-05-13T09:14:18Z</time>
      </trkpt>
      <trkpt lat="48.20509" lon="-3.0153">
        <ele>133</ele>
        <time>2015-05-13T09:14:31Z</time>
      </trkpt>
      <trkpt lat="48.20508" lon="-3.01528">
        <ele>133</ele>
        <time>2015-05-13T09:14:36Z</time>
      </trkpt>
      <trkpt lat="48.20505" lon="-3.01528">
        <ele>133</ele>
        <time>2015-05-13T09:14:41Z</time>
      </trkpt>
      <trkpt lat="48.20495" lon="-3.01538">
        <ele>132</ele>
        <time>2015-05-13T09:14:57Z</time>
      </trkpt>
      <trkpt lat="48.20448" lon="-3.01552">
        <ele>126</ele>
        <time>2015-05-13T09:15:42Z</time>
      </trkpt>
      <trkpt lat="48.2044" lon="-3.0156">
        <ele>126</ele>
        <time>2015-05-13T09:15:53Z</time>
      </trkpt>
      <trkpt lat="48.20438" lon="-3.0156">
        <ele>126</ele>
        <time>2015-05-13T09:15:55Z</time>
      </trkpt>
      <trkpt lat="48.20407" lon="-3.01567">
        <ele>123</ele>
        <time>2015-05-13T09:16:28Z</time>
      </trkpt>
      <trkpt lat="48.20379" lon="-3.01587">
        <ele>134</ele>
        <time>2015-05-13T09:17:26Z</time>
      </trkpt>
      <trkpt lat="48.20376" lon="-3.0158">
        <ele>134</ele>
        <time>2015-05-13T09:17:35Z</time>
      </trkpt>
      <trkpt lat="48.20375" lon="-3.01581">
        <ele>136</ele>
        <time>2015-05-13T09:17:44Z</time>
      </trkpt>
      <trkpt lat="48.20378" lon="-3.01595">
        <ele>135</ele>
        <time>2015-05-13T09:18:49Z</time>
      </trkpt>
      <trkpt lat="48.20376" lon="-3.01595">
        <ele>135</ele>
        <time>2015-05-13T09:18:52Z</time>
      </trkpt>
      <trkpt lat="48.2034" lon="-3.01694">
        <ele>137</ele>
        <time>2015-05-13T09:20:55Z</time>
      </trkpt>
      <trkpt lat="48.20335" lon="-3.0169">
        <ele>136</ele>
        <time>2015-05-13T09:21:01Z</time>
      </trkpt>
      <trkpt lat="48.20305" lon="-3.0181">
        <ele>141</ele>
        <time>2015-05-13T09:22:30Z</time>
      </trkpt>
      <trkpt lat="48.20306" lon="-3.01809">
        <ele>141</ele>
        <time>2015-05-13T09:22:35Z</time>
      </trkpt>
      <trkpt lat="48.20314" lon="-3.01823">
        <ele>133</ele>
        <time>2015-05-13T09:22:57Z</time>
      </trkpt>
      <trkpt lat="48.20308" lon="-3.01834">
        <ele>130</ele>
        <time>2015-05-13T09:23:05Z</time>
      </trkpt>
      <trkpt lat="48.20313" lon="-3.01938">
        <ele>130</ele>
        <time>2015-05-13T09:24:07Z</time>
      </trkpt>
      <trkpt lat="48.20329" lon="-3.01946">
        <ele>136</ele>
        <time>2015-05-13T09:24:23Z</time>
      </trkpt>
      <trkpt lat="48.20358" lon="-3.0204">
        <ele>139</ele>
        <time>2015-05-13T09:25:19Z</time>
      </trkpt>
      <trkpt lat="48.20343" lon="-3.02057">
        <ele>135</ele>
        <time>2015-05-13T09:25:40Z</time>
      </trkpt>
      <trkpt lat="48.20308" lon="-3.0201">
        <ele>130</ele>
        <time>2015-05-13T09:26:39Z</time>
      </trkpt>
      <trkpt lat="48.20317" lon="-3.02005">
        <ele>128</ele>
        <time>2015-05-13T09:26:49Z</time>
      </trkpt>
      <trkpt lat="48.20286" lon="-3.01971">
        <ele>128</ele>
        <time>2015-05-13T09:27:14Z</time>
      </trkpt>
      <trkpt lat="48.2025" lon="-3.01926">
        <ele>125</ele>
        <time>2015-05-13T09:28:06Z</time>
      </trkpt>
      <trkpt lat="48.20248" lon="-3.01927">
        <ele>126</ele>
        <time>2015-05-13T09:28:09Z</time>
      </trkpt>
      <trkpt lat="48.20235" lon="-3.01908">
        <ele>125</ele>
        <time>2015-05-13T09:28:28Z</time>
      </trkpt>
      <trkpt lat="48.20212" lon="-3.0192">
        <ele>124</ele>
        <time>2015-05-13T09:28:55Z</time>
      </trkpt>
      <trkpt lat="48.2021" lon="-3.01917">
        <ele>124</ele>
        <time>2015-05-13T09:29:01Z</time>
      </trkpt>
      <trkpt lat="48.20205" lon="-3.01925">
        <ele>122</ele>
        <time>2015-05-13T09:29:17Z</time>
      </trkpt>
      <trkpt lat="48.20206" lon="-3.0193">
        <ele>122</ele>
        <time>2015-05-13T09:29:21Z</time>
      </trkpt>
      <trkpt lat="48.20204" lon="-3.01932">
        <ele>122</ele>
        <time>2015-05-13T09:29:23Z</time>
      </trkpt>
      <trkpt lat="48.20206" lon="-3.01939">
        <ele>126</ele>
        <time>2015-05-13T09:29:29Z</time>
      </trkpt>
      <trkpt lat="48.20185" lon="-3.01962">
        <ele>133</ele>
        <time>2015-05-13T09:29:56Z</time>
      </trkpt>
      <trkpt lat="48.20177" lon="-3.01963">
        <ele>135</ele>
        <time>2015-05-13T09:30:07Z</time>
      </trkpt>
      <trkpt lat="48.20179" lon="-3.01931">
        <ele>124</ele>
        <time>2015-05-13T09:30:33Z</time>
      </trkpt>
      <trkpt lat="48.20182" lon="-3.01931">
        <ele>124</ele>
        <time>2015-05-13T09:30:35Z</time>
      </trkpt>
      <trkpt lat="48.20179" lon="-3.01897">
        <ele>120</ele>
        <time>2015-05-13T09:30:55Z</time>
      </trkpt>
      <trkpt lat="48.20185" lon="-3.01887">
        <ele>124</ele>
        <time>2015-05-13T09:31:11Z</time>
      </trkpt>
      <trkpt lat="48.20187" lon="-3.01887">
        <ele>128</ele>
        <time>2015-05-13T09:31:15Z</time>
      </trkpt>
      <trkpt lat="48.20189" lon="-3.01809">
        <ele>124</ele>
        <time>2015-05-13T09:32:17Z</time>
      </trkpt>
      <trkpt lat="48.20137" lon="-3.0179">
        <ele>120</ele>
        <time>2015-05-13T09:33:17Z</time>
      </trkpt>
      <trkpt lat="48.20138" lon="-3.01779">
        <ele>120</ele>
        <time>2015-05-13T09:33:24Z</time>
      </trkpt>
      <trkpt lat="48.20135" lon="-3.01772">
        <ele>120</ele>
        <time>2015-05-13T09:33:36Z</time>
      </trkpt>
      <trkpt lat="48.20136" lon="-3.0177">
        <ele>122</ele>
        <time>2015-05-13T09:33:42Z</time>
      </trkpt>
      <trkpt lat="48.20137" lon="-3.01771">
        <ele>123</ele>
        <time>2015-05-13T09:33:47Z</time>
      </trkpt>
      <trkpt lat="48.20138" lon="-3.01773">
        <ele>123</ele>
        <time>2015-05-13T09:33:50Z</time>
      </trkpt>
      <trkpt lat="48.20136" lon="-3.01774">
        <ele>123</ele>
        <time>2015-05-13T09:33:56Z</time>
      </trkpt>
      <trkpt lat="48.20139" lon="-3.01769">
        <ele>123</ele>
        <time>2015-05-13T09:34:02Z</time>
      </trkpt>
      <trkpt lat="48.20136" lon="-3.01761">
        <ele>123</ele>
        <time>2015-05-13T09:34:07Z</time>
      </trkpt>
      <trkpt lat="48.20137" lon="-3.01759">
        <ele>123</ele>
        <time>2015-05-13T09:34:09Z</time>
      </trkpt>
      <trkpt lat="48.20136" lon="-3.01761">
        <ele>123</ele>
        <time>2015-05-13T09:34:18Z</time>
      </trkpt>
      <trkpt lat="48.20145" lon="-3.01784">
        <ele>124</ele>
        <time>2015-05-13T09:35:01Z</time>
      </trkpt>
      <trkpt lat="48.20139" lon="-3.01791">
        <ele>125</ele>
        <time>2015-05-13T09:35:11Z</time>
      </trkpt>
      <trkpt lat="48.20139" lon="-3.01789">
        <ele>115</ele>
        <time>2015-05-13T09:35:32Z</time>
      </trkpt>
      <trkpt lat="48.20137" lon="-3.01791">
        <ele>115</ele>
        <time>2015-05-13T09:35:35Z</time>
      </trkpt>
      <trkpt lat="48.20095" lon="-3.01769">
        <ele>124</ele>
        <time>2015-05-13T09:36:07Z</time>
      </trkpt>
      <trkpt lat="48.20082" lon="-3.01749">
        <ele>126</ele>
        <time>2015-05-13T09:36:20Z</time>
      </trkpt>
      <trkpt lat="48.20044" lon="-3.01753">
        <ele>129</ele>
        <time>2015-05-13T09:36:47Z</time>
      </trkpt>
      <trkpt lat="48.20042" lon="-3.01752">
        <ele>129</ele>
        <time>2015-05-13T09:36:49Z</time>
      </trkpt>
      <trkpt lat="48.20041" lon="-3.01749">
        <ele>129</ele>
        <time>2015-05-13T09:37:00Z</time>
      </trkpt>
      <trkpt lat="48.20031" lon="-3.01751">
        <ele>131</ele>
        <time>2015-05-13T09:37:11Z</time>
      </trkpt>
      <trkpt lat="48.1997" lon="-3.01702">
        <ele>121</ele>
        <time>2015-05-13T09:38:17Z</time>
      </trkpt>
      <trkpt lat="48.1992" lon="-3.01708">
        <ele>124</ele>
        <time>2015-05-13T09:39:18Z</time>
      </trkpt>
      <trkpt lat="48.19944" lon="-3.01824">
        <ele>139</ele>
        <time>2015-05-13T09:41:11Z</time>
      </trkpt>
      <trkpt lat="48.19944" lon="-3.01821">
        <ele>140</ele>
        <time>2015-05-13T09:41:18Z</time>
      </trkpt>
      <trkpt lat="48.1995" lon="-3.01816">
        <ele>140</ele>
        <time>2015-05-13T09:41:25Z</time>
      </trkpt>
      <trkpt lat="48.19958" lon="-3.01824">
        <ele>141</ele>
        <time>2015-05-13T09:41:46Z</time>
      </trkpt>
      <trkpt lat="48.19958" lon="-3.0182">
        <ele>141</ele>
        <time>2015-05-13T09:41:52Z</time>
      </trkpt>
      <trkpt lat="48.1996" lon="-3.0182">
        <ele>142</ele>
        <time>2015-05-13T09:41:57Z</time>
      </trkpt>
      <trkpt lat="48.1996" lon="-3.01815">
        <ele>142</ele>
        <time>2015-05-13T09:42:03Z</time>
      </trkpt>
      <trkpt lat="48.19955" lon="-3.01813">
        <ele>142</ele>
        <time>2015-05-13T09:42:11Z</time>
      </trkpt>
      <trkpt lat="48.19954" lon="-3.01827">
        <ele>148</ele>
        <time>2015-05-13T09:42:46Z</time>
      </trkpt>
      <trkpt lat="48.19956" lon="-3.01826">
        <ele>149</ele>
        <time>2015-05-13T09:42:49Z</time>
      </trkpt>
      <trkpt lat="48.19952" lon="-3.01814">
        <ele>143</ele>
        <time>2015-05-13T09:43:24Z</time>
      </trkpt>
      <trkpt lat="48.19953" lon="-3.01813">
        <ele>142</ele>
        <time>2015-05-13T09:43:26Z</time>
      </trkpt>
      <trkpt lat="48.19958" lon="-3.01816">
        <ele>142</ele>
        <time>2015-05-13T09:43:35Z</time>
      </trkpt>
      <trkpt lat="48.19957" lon="-3.01818">
        <ele>142</ele>
        <time>2015-05-13T09:43:37Z</time>
      </trkpt>
      <trkpt lat="48.19961" lon="-3.01823">
        <ele>142</ele>
        <time>2015-05-13T09:43:43Z</time>
      </trkpt>
      <trkpt lat="48.1996" lon="-3.01825">
        <ele>142</ele>
        <time>2015-05-13T09:43:46Z</time>
      </trkpt>
      <trkpt lat="48.19957" lon="-3.01824">
        <ele>142</ele>
        <time>2015-05-13T09:43:53Z</time>
      </trkpt>
      <trkpt lat="48.19956" lon="-3.01827">
        <ele>142</ele>
        <time>2015-05-13T09:44:05Z</time>
      </trkpt>
      <trkpt lat="48.19955" lon="-3.01826">
        <ele>142</ele>
        <time>2015-05-13T09:44:14Z</time>
      </trkpt>
      <trkpt lat="48.19949" lon="-3.01828">
        <ele>150</ele>
        <time>2015-05-13T09:44:24Z</time>
      </trkpt>
      <trkpt lat="48.19952" lon="-3.01805">
        <ele>155</ele>
        <time>2015-05-13T09:44:47Z</time>
      </trkpt>
      <trkpt lat="48.19951" lon="-3.01804">
        <ele>154</ele>
        <time>2015-05-13T09:44:50Z</time>
      </trkpt>
      <trkpt lat="48.19952" lon="-3.01809">
        <ele>151</ele>
        <time>2015-05-13T09:44:56Z</time>
      </trkpt>
      <trkpt lat="48.19953" lon="-3.01809">
        <ele>148</ele>
        <time>2015-05-13T09:45:00Z</time>
      </trkpt>
      <trkpt lat="48.19954" lon="-3.01811">
        <ele>146</ele>
        <time>2015-05-13T09:45:07Z</time>
      </trkpt>
      <trkpt lat="48.19954" lon="-3.01812">
        <ele>144</ele>
        <time>2015-05-13T09:45:16Z</time>
      </trkpt>
      <trkpt lat="48.19955" lon="-3.01816">
        <ele>144</ele>
        <time>2015-05-13T09:45:30Z</time>
      </trkpt>
      <trkpt lat="48.19954" lon="-3.01817">
        <ele>147</ele>
        <time>2015-05-13T09:45:38Z</time>
      </trkpt>
      <trkpt lat="48.19952" lon="-3.01817">
        <ele>148</ele>
        <time>2015-05-13T09:45:41Z</time>
      </trkpt>
      <trkpt lat="48.19954" lon="-3.01816">
        <ele>148</ele>
        <time>2015-05-13T09:45:43Z</time>
      </trkpt>
      <trkpt lat="48.19954" lon="-3.01814">
        <ele>148</ele>
        <time>2015-05-13T09:45:48Z</time>
      </trkpt>
      <trkpt lat="48.19953" lon="-3.01816">
        <ele>151</ele>
        <time>2015-05-13T09:45:55Z</time>
      </trkpt>
      <trkpt lat="48.19952" lon="-3.01814">
        <ele>154</ele>
        <time>2015-05-13T09:45:58Z</time>
      </trkpt>
      <trkpt lat="48.19958" lon="-3.01813">
        <ele>154</ele>
        <time>2015-05-13T09:46:10Z</time>
      </trkpt>
      <trkpt lat="48.19972" lon="-3.01825">
        <ele>155</ele>
        <time>2015-05-13T09:46:20Z</time>
      </trkpt>
      <trkpt lat="48.19968" lon="-3.01829">
        <ele>154</ele>
        <time>2015-05-13T09:46:28Z</time>
      </trkpt>
      <trkpt lat="48.19957" lon="-3.01806">
        <ele>154</ele>
        <time>2015-05-13T09:46:33Z</time>
      </trkpt>
      <trkpt lat="48.19962" lon="-3.01805">
        <ele>156</ele>
        <time>2015-05-13T09:46:41Z</time>
      </trkpt>
      <trkpt lat="48.19963" lon="-3.0181">
        <ele>156</ele>
        <time>2015-05-13T09:46:45Z</time>
      </trkpt>
      <trkpt lat="48.19962" lon="-3.01806">
        <ele>153</ele>
        <time>2015-05-13T09:46:49Z</time>
      </trkpt>
      <trkpt lat="48.19965" lon="-3.01808">
        <ele>149</ele>
        <time>2015-05-13T09:46:53Z</time>
      </trkpt>
      <trkpt lat="48.19963" lon="-3.01804">
        <ele>146</ele>
        <time>2015-05-13T09:46:56Z</time>
      </trkpt>
      <trkpt lat="48.19957" lon="-3.01807">
        <ele>142</ele>
        <time>2015-05-13T09:47:02Z</time>
      </trkpt>
      <trkpt lat="48.19963" lon="-3.01802">
        <ele>151</ele>
        <time>2015-05-13T09:47:21Z</time>
      </trkpt>
      <trkpt lat="48.19962" lon="-3.01807">
        <ele>157</ele>
        <time>2015-05-13T09:47:37Z</time>
      </trkpt>
      <trkpt lat="48.19958" lon="-3.01805">
        <ele>156</ele>
        <time>2015-05-13T09:47:46Z</time>
      </trkpt>
      <trkpt lat="48.1996" lon="-3.01809">
        <ele>154</ele>
        <time>2015-05-13T09:47:52Z</time>
      </trkpt>
      <trkpt lat="48.19959" lon="-3.01809">
        <ele>154</ele>
        <time>2015-05-13T09:47:58Z</time>
      </trkpt>
      <trkpt lat="48.19958" lon="-3.01808">
        <ele>154</ele>
        <time>2015-05-13T09:48:00Z</time>
      </trkpt>
      <trkpt lat="48.19964" lon="-3.01809">
        <ele>155</ele>
        <time>2015-05-13T09:48:17Z</time>
      </trkpt>
      <trkpt lat="48.19963" lon="-3.01809">
        <ele>156</ele>
        <time>2015-05-13T09:48:30Z</time>
      </trkpt>
      <trkpt lat="48.19965" lon="-3.0181">
        <ele>156</ele>
        <time>2015-05-13T09:48:37Z</time>
      </trkpt>
      <trkpt lat="48.1996" lon="-3.0181">
        <ele>156</ele>
        <time>2015-05-13T09:48:50Z</time>
      </trkpt>
      <trkpt lat="48.19962" lon="-3.01809">
        <ele>156</ele>
        <time>2015-05-13T09:48:52Z</time>
      </trkpt>
      <trkpt lat="48.19963" lon="-3.01807">
        <ele>156</ele>
        <time>2015-05-13T09:48:55Z</time>
      </trkpt>
      <trkpt lat="48.19961" lon="-3.01807">
        <ele>156</ele>
        <time>2015-05-13T09:48:59Z</time>
      </trkpt>
      <trkpt lat="48.19962" lon="-3.01809">
        <ele>155</ele>
        <time>2015-05-13T09:49:16Z</time>
      </trkpt>
      <trkpt lat="48.19955" lon="-3.018">
        <ele>152</ele>
        <time>2015-05-13T09:49:42Z</time>
      </trkpt>
      <trkpt lat="48.1996" lon="-3.01826">
        <ele>139</ele>
        <time>2015-05-13T09:50:27Z</time>
      </trkpt>
      <trkpt lat="48.19959" lon="-3.01827">
        <ele>139</ele>
        <time>2015-05-13T09:50:29Z</time>
      </trkpt>
      <trkpt lat="48.19961" lon="-3.01829">
        <ele>139</ele>
        <time>2015-05-13T09:50:38Z</time>
      </trkpt>
      <trkpt lat="48.19954" lon="-3.0184">
        <ele>141</ele>
        <time>2015-05-13T09:50:48Z</time>
      </trkpt>
      <trkpt lat="48.1995" lon="-3.0184">
        <ele>141</ele>
        <time>2015-05-13T09:50:52Z</time>
      </trkpt>
      <trkpt lat="48.19941" lon="-3.01827">
        <ele>141</ele>
        <time>2015-05-13T09:51:09Z</time>
      </trkpt>
      <trkpt lat="48.19928" lon="-3.01847">
        <ele>141</ele>
        <time>2015-05-13T09:51:34Z</time>
      </trkpt>
      <trkpt lat="48.19927" lon="-3.01852">
        <ele>141</ele>
        <time>2015-05-13T09:51:38Z</time>
      </trkpt>
      <trkpt lat="48.19926" lon="-3.01852">
        <ele>141</ele>
        <time>2015-05-13T09:51:40Z</time>
      </trkpt>
      <trkpt lat="48.19886" lon="-3.02065">
        <ele>122</ele>
        <time>2015-05-13T09:54:06Z</time>
      </trkpt>
      <trkpt lat="48.19889" lon="-3.02068">
        <ele>121</ele>
        <time>2015-05-13T09:54:08Z</time>
      </trkpt>
      <trkpt lat="48.1988" lon="-3.02242">
        <ele>123</ele>
        <time>2015-05-13T09:55:50Z</time>
      </trkpt>
      <trkpt lat="48.19878" lon="-3.02242">
        <ele>124</ele>
        <time>2015-05-13T09:55:52Z</time>
      </trkpt>
      <trkpt lat="48.19877" lon="-3.02238">
        <ele>128</ele>
        <time>2015-05-13T09:55:58Z</time>
      </trkpt>
      <trkpt lat="48.19876" lon="-3.02256">
        <ele>128</ele>
        <time>2015-05-13T09:56:12Z</time>
      </trkpt>
      <trkpt lat="48.19877" lon="-3.02255">
        <ele>128</ele>
        <time>2015-05-13T09:56:14Z</time>
      </trkpt>
      <trkpt lat="48.19868" lon="-3.02272">
        <ele>123</ele>
        <time>2015-05-13T09:56:39Z</time>
      </trkpt>
      <trkpt lat="48.19861" lon="-3.02272">
        <ele>128</ele>
        <time>2015-05-13T09:56:53Z</time>
      </trkpt>
      <trkpt lat="48.1986" lon="-3.02268">
        <ele>132</ele>
        <time>2015-05-13T09:56:58Z</time>
      </trkpt>
      <trkpt lat="48.19858" lon="-3.02268">
        <ele>133</ele>
        <time>2015-05-13T09:57:01Z</time>
      </trkpt>
      <trkpt lat="48.19868" lon="-3.02266">
        <ele>132</ele>
        <time>2015-05-13T09:57:26Z</time>
      </trkpt>
      <trkpt lat="48.19882" lon="-3.02288">
        <ele>129</ele>
        <time>2015-05-13T09:57:50Z</time>
      </trkpt>
      <trkpt lat="48.19881" lon="-3.02287">
        <ele>129</ele>
        <time>2015-05-13T09:57:56Z</time>
      </trkpt>
      <trkpt lat="48.19902" lon="-3.02306">
        <ele>129</ele>
        <time>2015-05-13T09:58:40Z</time>
      </trkpt>
      <trkpt lat="48.19914" lon="-3.02335">
        <ele>136</ele>
        <time>2015-05-13T09:59:15Z</time>
      </trkpt>
      <trkpt lat="48.19929" lon="-3.02347">
        <ele>141</ele>
        <time>2015-05-13T09:59:44Z</time>
      </trkpt>
      <trkpt lat="48.19931" lon="-3.02344">
        <ele>146</ele>
        <time>2015-05-13T09:59:50Z</time>
      </trkpt>
      <trkpt lat="48.19938" lon="-3.02349">
        <ele>147</ele>
        <time>2015-05-13T09:59:58Z</time>
      </trkpt>
      <trkpt lat="48.20139" lon="-3.03097">
        <ele>152</ele>
        <time>2015-05-13T10:07:20Z</time>
      </trkpt>
      <trkpt lat="48.20327" lon="-3.03246">
        <ele>166</ele>
        <time>2015-05-13T10:09:57Z</time>
      </trkpt>
      <trkpt lat="48.20331" lon="-3.03243">
        <ele>167</ele>
        <time>2015-05-13T10:10:01Z</time>
      </trkpt>
      <trkpt lat="48.20348" lon="-3.03242">
        <ele>175</ele>
        <time>2015-05-13T10:10:19Z</time>
      </trkpt>
      <trkpt lat="48.20363" lon="-3.03224">
        <ele>178</ele>
        <time>2015-05-13T10:10:34Z</time>
      </trkpt>
      <trkpt lat="48.20369" lon="-3.03224">
        <ele>179</ele>
        <time>2015-05-13T10:10:39Z</time>
      </trkpt>
      <trkpt lat="48.20372" lon="-3.03228">
        <ele>180</ele>
        <time>2015-05-13T10:10:43Z</time>
      </trkpt>
      <trkpt lat="48.20375" lon="-3.03224">
        <ele>183</ele>
        <time>2015-05-13T10:10:59Z</time>
      </trkpt>
      <trkpt lat="48.20373" lon="-3.03223">
        <ele>185</ele>
        <time>2015-05-13T10:11:06Z</time>
      </trkpt>
      <trkpt lat="48.20403" lon="-3.03308">
        <ele>173</ele>
        <time>2015-05-13T10:12:04Z</time>
      </trkpt>
      <trkpt lat="48.20399" lon="-3.03308">
        <ele>182</ele>
        <time>2015-05-13T10:12:28Z</time>
      </trkpt>
      <trkpt lat="48.20414" lon="-3.0344">
        <ele>173</ele>
        <time>2015-05-13T10:15:25Z</time>
      </trkpt>
      <trkpt lat="48.20416" lon="-3.03442">
        <ele>173</ele>
        <time>2015-05-13T10:15:52Z</time>
      </trkpt>
      <trkpt lat="48.20415" lon="-3.03442">
        <ele>173</ele>
        <time>2015-05-13T10:16:05Z</time>
      </trkpt>
      <trkpt lat="48.20416" lon="-3.03438">
        <ele>173</ele>
        <time>2015-05-13T10:16:10Z</time>
      </trkpt>
      <trkpt lat="48.20419" lon="-3.03437">
        <ele>173</ele>
        <time>2015-05-13T10:16:14Z</time>
      </trkpt>
      <trkpt lat="48.20421" lon="-3.03437">
        <ele>173</ele>
        <time>2015-05-13T10:16:16Z</time>
      </trkpt>
      <trkpt lat="48.20424" lon="-3.03451">
        <ele>173</ele>
        <time>2015-05-13T10:16:25Z</time>
      </trkpt>
      <trkpt lat="48.20426" lon="-3.03453">
        <ele>173</ele>
        <time>2015-05-13T10:16:27Z</time>
      </trkpt>
      <trkpt lat="48.20431" lon="-3.03452">
        <ele>173</ele>
        <time>2015-05-13T10:16:31Z</time>
      </trkpt>
      <trkpt lat="48.20433" lon="-3.03451">
        <ele>173</ele>
        <time>2015-05-13T10:16:33Z</time>
      </trkpt>
      <trkpt lat="48.20436" lon="-3.03455">
        <ele>173</ele>
        <time>2015-05-13T10:16:36Z</time>
      </trkpt>
      <trkpt lat="48.20509" lon="-3.03671">
        <ele>161</ele>
        <time>2015-05-13T10:19:21Z</time>
      </trkpt>
      <trkpt lat="48.20508" lon="-3.03672">
        <ele>161</ele>
        <time>2015-05-13T10:19:24Z</time>
      </trkpt>
      <trkpt lat="48.20507" lon="-3.03672">
        <ele>164</ele>
        <time>2015-05-13T10:19:32Z</time>
      </trkpt>
      <trkpt lat="48.20506" lon="-3.03673">
        <ele>165</ele>
        <time>2015-05-13T10:19:42Z</time>
      </trkpt>
      <trkpt lat="48.20544" lon="-3.03776">
        <ele>162</ele>
        <time>2015-05-13T10:22:02Z</time>
      </trkpt>
      <trkpt lat="48.20552" lon="-3.03775">
        <ele>163</ele>
        <time>2015-05-13T10:22:29Z</time>
      </trkpt>
      <trkpt lat="48.20553" lon="-3.03865">
        <ele>154</ele>
        <time>2015-05-13T10:24:14Z</time>
      </trkpt>
      <trkpt lat="48.20552" lon="-3.03864">
        <ele>153</ele>
        <time>2015-05-13T10:24:16Z</time>
      </trkpt>
      <trkpt lat="48.20547" lon="-3.03867">
        <ele>151</ele>
        <time>2015-05-13T10:24:25Z</time>
      </trkpt>
      <trkpt lat="48.20544" lon="-3.03863">
        <ele>149</ele>
        <time>2015-05-13T10:24:35Z</time>
      </trkpt>
      <trkpt lat="48.20519" lon="-3.03881">
        <ele>138</ele>
        <time>2015-05-13T10:25:25Z</time>
      </trkpt>
      <trkpt lat="48.20515" lon="-3.039">
        <ele>132</ele>
        <time>2015-05-13T10:25:47Z</time>
      </trkpt>
      <trkpt lat="48.20511" lon="-3.03896">
        <ele>131</ele>
        <time>2015-05-13T10:25:55Z</time>
      </trkpt>
      <trkpt lat="48.20509" lon="-3.03898">
        <ele>130</ele>
        <time>2015-05-13T10:25:58Z</time>
      </trkpt>
      <trkpt lat="48.20616" lon="-3.04273">
        <ele>109</ele>
        <time>2015-05-13T10:30:03Z</time>
      </trkpt>
      <trkpt lat="48.20623" lon="-3.04286">
        <ele>109</ele>
        <time>2015-05-13T10:30:14Z</time>
      </trkpt>
      <trkpt lat="48.20639" lon="-3.04271">
        <ele>116</ele>
        <time>2015-05-13T10:30:35Z</time>
      </trkpt>
      <trkpt lat="48.2064" lon="-3.04272">
        <ele>116</ele>
        <time>2015-05-13T10:30:37Z</time>
      </trkpt>
      <trkpt lat="48.20661" lon="-3.04274">
        <ele>117</ele>
        <time>2015-05-13T10:31:00Z</time>
      </trkpt>
      <trkpt lat="48.20684" lon="-3.04365">
        <ele>120</ele>
        <time>2015-05-13T10:32:02Z</time>
      </trkpt>
      <trkpt lat="48.20692" lon="-3.04363">
        <ele>121</ele>
        <time>2015-05-13T10:32:17Z</time>
      </trkpt>
      <trkpt lat="48.20692" lon="-3.04366">
        <ele>122</ele>
        <time>2015-05-13T10:32:21Z</time>
      </trkpt>
      <trkpt lat="48.20687" lon="-3.04343">
        <ele>131</ele>
        <time>2015-05-13T10:32:43Z</time>
      </trkpt>
      <trkpt lat="48.20691" lon="-3.04336">
        <ele>131</ele>
        <time>2015-05-13T10:32:48Z</time>
      </trkpt>
      <trkpt lat="48.20697" lon="-3.04336">
        <ele>131</ele>
        <time>2015-05-13T10:32:57Z</time>
      </trkpt>
      <trkpt lat="48.20712" lon="-3.04377">
        <ele>127</ele>
        <time>2015-05-13T10:33:39Z</time>
      </trkpt>
      <trkpt lat="48.20713" lon="-3.04375">
        <ele>127</ele>
        <time>2015-05-13T10:33:42Z</time>
      </trkpt>
      <trkpt lat="48.20724" lon="-3.04383">
        <ele>128</ele>
        <time>2015-05-13T10:34:14Z</time>
      </trkpt>
      <trkpt lat="48.20782" lon="-3.0448">
        <ele>124</ele>
        <time>2015-05-13T10:35:40Z</time>
      </trkpt>
      <trkpt lat="48.20807" lon="-3.04468">
        <ele>124</ele>
        <time>2015-05-13T10:36:12Z</time>
      </trkpt>
      <trkpt lat="48.20846" lon="-3.04422">
        <ele>119</ele>
        <time>2015-05-13T10:36:59Z</time>
      </trkpt>
      <trkpt lat="48.20853" lon="-3.04422">
        <ele>115</ele>
        <time>2015-05-13T10:37:05Z</time>
      </trkpt>
      <trkpt lat="48.2092" lon="-3.04351">
        <ele>131</ele>
        <time>2015-05-13T10:38:10Z</time>
      </trkpt>
      <trkpt lat="48.20944" lon="-3.043">
        <ele>136</ele>
        <time>2015-05-13T10:38:44Z</time>
      </trkpt>
      <trkpt lat="48.20948" lon="-3.04269">
        <ele>136</ele>
        <time>2015-05-13T10:39:08Z</time>
      </trkpt>
      <trkpt lat="48.2098" lon="-3.04165">
        <ele>131</ele>
        <time>2015-05-13T10:40:21Z</time>
      </trkpt>
      <trkpt lat="48.20971" lon="-3.04156">
        <ele>131</ele>
        <time>2015-05-13T10:40:27Z</time>
      </trkpt>
      <trkpt lat="48.21006" lon="-3.041">
        <ele>143</ele>
        <time>2015-05-13T10:40:59Z</time>
      </trkpt>
      <trkpt lat="48.21005" lon="-3.04098">
        <ele>143</ele>
        <time>2015-05-13T10:41:01Z</time>
      </trkpt>
      <trkpt lat="48.21008" lon="-3.04084">
        <ele>143</ele>
        <time>2015-05-13T10:41:07Z</time>
      </trkpt>
      <trkpt lat="48.21005" lon="-3.04083">
        <ele>143</ele>
        <time>2015-05-13T10:41:09Z</time>
      </trkpt>
      <trkpt lat="48.21019" lon="-3.04026">
        <ele>133</ele>
        <time>2015-05-13T10:41:45Z</time>
      </trkpt>
      <trkpt lat="48.21026" lon="-3.04022">
        <ele>133</ele>
        <time>2015-05-13T10:42:03Z</time>
      </trkpt>
      <trkpt lat="48.21013" lon="-3.04352">
        <ele>122</ele>
        <time>2015-05-13T10:45:40Z</time>
      </trkpt>
      <trkpt lat="48.20996" lon="-3.044">
        <ele>122</ele>
        <time>2015-05-13T10:46:14Z</time>
      </trkpt>
      <trkpt lat="48.21002" lon="-3.04401">
        <ele>126</ele>
        <time>2015-05-13T10:46:31Z</time>
      </trkpt>
      <trkpt lat="48.20996" lon="-3.04402">
        <ele>126</ele>
        <time>2015-05-13T10:46:35Z</time>
      </trkpt>
      <trkpt lat="48.20986" lon="-3.04413">
        <ele>104</ele>
        <time>2015-05-13T10:46:50Z</time>
      </trkpt>
      <trkpt lat="48.2089" lon="-3.04569">
        <ele>118</ele>
        <time>2015-05-13T10:48:37Z</time>
      </trkpt>
      <trkpt lat="48.20889" lon="-3.04569">
        <ele>118</ele>
        <time>2015-05-13T10:48:39Z</time>
      </trkpt>
      <trkpt lat="48.20888" lon="-3.04572">
        <ele>118</ele>
        <time>2015-05-13T10:48:41Z</time>
      </trkpt>
      <trkpt lat="48.2089" lon="-3.04573">
        <ele>119</ele>
        <time>2015-05-13T10:48:43Z</time>
      </trkpt>
      <trkpt lat="48.20874" lon="-3.0462">
        <ele>127</ele>
        <time>2015-05-13T10:49:08Z</time>
      </trkpt>
      <trkpt lat="48.20981" lon="-3.04816">
        <ele>127</ele>
        <time>2015-05-13T10:51:22Z</time>
      </trkpt>
      <trkpt lat="48.20994" lon="-3.04826">
        <ele>127</ele>
        <time>2015-05-13T10:51:30Z</time>
      </trkpt>
      <trkpt lat="48.20998" lon="-3.04849">
        <ele>125</ele>
        <time>2015-05-13T10:51:45Z</time>
      </trkpt>
      <trkpt lat="48.21" lon="-3.04851">
        <ele>124</ele>
        <time>2015-05-13T10:51:47Z</time>
      </trkpt>
      <trkpt lat="48.21002" lon="-3.04857">
        <ele>120</ele>
        <time>2015-05-13T10:51:52Z</time>
      </trkpt>
      <trkpt lat="48.21006" lon="-3.04857">
        <ele>119</ele>
        <time>2015-05-13T10:51:54Z</time>
      </trkpt>
      <trkpt lat="48.21007" lon="-3.04859">
        <ele>117</ele>
        <time>2015-05-13T10:51:56Z</time>
      </trkpt>
      <trkpt lat="48.21017" lon="-3.04861">
        <ele>115</ele>
        <time>2015-05-13T10:52:00Z</time>
      </trkpt>
      <trkpt lat="48.21016" lon="-3.04871">
        <ele>116</ele>
        <time>2015-05-13T10:52:08Z</time>
      </trkpt>
      <trkpt lat="48.21013" lon="-3.04872">
        <ele>123</ele>
        <time>2015-05-13T10:52:18Z</time>
      </trkpt>
      <trkpt lat="48.21017" lon="-3.04882">
        <ele>125</ele>
        <time>2015-05-13T10:52:29Z</time>
      </trkpt>
      <trkpt lat="48.21014" lon="-3.04885">
        <ele>126</ele>
        <time>2015-05-13T10:52:33Z</time>
      </trkpt>
      <trkpt lat="48.21016" lon="-3.04888">
        <ele>126</ele>
        <time>2015-05-13T10:52:39Z</time>
      </trkpt>
      <trkpt lat="48.21019" lon="-3.04888">
        <ele>126</ele>
        <time>2015-05-13T10:52:41Z</time>
      </trkpt>
      <trkpt lat="48.21059" lon="-3.04942">
        <ele>128</ele>
        <time>2015-05-13T10:52:44Z</time>
      </trkpt>
      <trkpt lat="48.20769" lon="-3.04714">
        <ele>140</ele>
        <time>2015-05-13T10:53:44Z</time>
      </trkpt>
      <trkpt lat="48.2077" lon="-3.04716">
        <ele>140</ele>
        <time>2015-05-13T10:53:46Z</time>
      </trkpt>
      <trkpt lat="48.20768" lon="-3.04718">
        <ele>140</ele>
        <time>2015-05-13T10:53:49Z</time>
      </trkpt>
      <trkpt lat="48.20668" lon="-3.0458">
        <ele>124</ele>
        <time>2015-05-13T10:56:00Z</time>
      </trkpt>
      <trkpt lat="48.20659" lon="-3.04574">
        <ele>124</ele>
        <time>2015-05-13T10:56:08Z</time>
      </trkpt>
      <trkpt lat="48.20636" lon="-3.04579">
        <ele>124</ele>
        <time>2015-05-13T10:56:33Z</time>
      </trkpt>
      <trkpt lat="48.20637" lon="-3.04593">
        <ele>123</ele>
        <time>2015-05-13T10:57:02Z</time>
      </trkpt>
      <trkpt lat="48.20565" lon="-3.04664">
        <ele>123</ele>
        <time>2015-05-13T10:58:40Z</time>
      </trkpt>
      <trkpt lat="48.20557" lon="-3.04658">
        <ele>123</ele>
        <time>2015-05-13T10:58:50Z</time>
      </trkpt>
      <trkpt lat="48.20553" lon="-3.0466">
        <ele>123</ele>
        <time>2015-05-13T10:58:54Z</time>
      </trkpt>
      <trkpt lat="48.20532" lon="-3.04729">
        <ele>123</ele>
        <time>2015-05-13T10:59:48Z</time>
      </trkpt>
      <trkpt lat="48.20541" lon="-3.04766">
        <ele>123</ele>
        <time>2015-05-13T11:00:16Z</time>
      </trkpt>
      <trkpt lat="48.20566" lon="-3.04786">
        <ele>123</ele>
        <time>2015-05-13T11:00:46Z</time>
      </trkpt>
      <trkpt lat="48.20572" lon="-3.04786">
        <ele>123</ele>
        <time>2015-05-13T11:00:51Z</time>
      </trkpt>
      <trkpt lat="48.2061" lon="-3.04871">
        <ele>123</ele>
        <time>2015-05-13T11:01:46Z</time>
      </trkpt>
      <trkpt lat="48.20592" lon="-3.04954">
        <ele>130</ele>
        <time>2015-05-13T11:02:40Z</time>
      </trkpt>
      <trkpt lat="48.20594" lon="-3.04954">
        <ele>131</ele>
        <time>2015-05-13T11:03:07Z</time>
      </trkpt>
      <trkpt lat="48.20602" lon="-3.04996">
        <ele>133</ele>
        <time>2015-05-13T11:03:45Z</time>
      </trkpt>
      <trkpt lat="48.206" lon="-3.05">
        <ele>133</ele>
        <time>2015-05-13T11:03:53Z</time>
      </trkpt>
      <trkpt lat="48.20599" lon="-3.05001">
        <ele>133</ele>
        <time>2015-05-13T11:04:34Z</time>
      </trkpt>
      <trkpt lat="48.20603" lon="-3.04992">
        <ele>133</ele>
        <time>2015-05-13T11:04:42Z</time>
      </trkpt>
      <trkpt lat="48.20607" lon="-3.0499">
        <ele>133</ele>
        <time>2015-05-13T11:04:46Z</time>
      </trkpt>
      <trkpt lat="48.20631" lon="-3.05034">
        <ele>134</ele>
        <time>2015-05-13T11:05:31Z</time>
      </trkpt>
      <trkpt lat="48.20633" lon="-3.05034">
        <ele>134</ele>
        <time>2015-05-13T11:05:43Z</time>
      </trkpt>
      <trkpt lat="48.20647" lon="-3.05053">
        <ele>135</ele>
        <time>2015-05-13T11:06:07Z</time>
      </trkpt>
      <trkpt lat="48.20653" lon="-3.05052">
        <ele>136</ele>
        <time>2015-05-13T11:06:43Z</time>
      </trkpt>
      <trkpt lat="48.20685" lon="-3.05121">
        <ele>141</ele>
        <time>2015-05-13T11:07:54Z</time>
      </trkpt>
      <trkpt lat="48.20683" lon="-3.05118">
        <ele>141</ele>
        <time>2015-05-13T11:08:03Z</time>
      </trkpt>
      <trkpt lat="48.20962" lon="-3.05387">
        <ele>154</ele>
        <time>2015-05-13T11:13:38Z</time>
      </trkpt>
      <trkpt lat="48.20967" lon="-3.05391">
        <ele>154</ele>
        <time>2015-05-13T11:13:43Z</time>
      </trkpt>
      <trkpt lat="48.20972" lon="-3.05398">
        <ele>154</ele>
        <time>2015-05-13T11:13:49Z</time>
      </trkpt>
      <trkpt lat="48.20994" lon="-3.05678">
        <ele>161</ele>
        <time>2015-05-13T11:16:34Z</time>
      </trkpt>
      <trkpt lat="48.20989" lon="-3.0568">
        <ele>161</ele>
        <time>2015-05-13T11:16:55Z</time>
      </trkpt>
      <trkpt lat="48.20955" lon="-3.05676">
        <ele>161</ele>
        <time>2015-05-13T11:17:39Z</time>
      </trkpt>
      <trkpt lat="48.20893" lon="-3.0562">
        <ele>155</ele>
        <time>2015-05-13T11:18:43Z</time>
      </trkpt>
      <trkpt lat="48.20885" lon="-3.05619">
        <ele>155</ele>
        <time>2015-05-13T11:18:50Z</time>
      </trkpt>
      <trkpt lat="48.20881" lon="-3.05622">
        <ele>155</ele>
        <time>2015-05-13T11:18:56Z</time>
      </trkpt>
      <trkpt lat="48.20848" lon="-3.05676">
        <ele>156</ele>
        <time>2015-05-13T11:19:29Z</time>
      </trkpt>
      <trkpt lat="48.2085" lon="-3.05678">
        <ele>157</ele>
        <time>2015-05-13T11:19:34Z</time>
      </trkpt>
      <trkpt lat="48.20848" lon="-3.05679">
        <ele>157</ele>
        <time>2015-05-13T11:19:37Z</time>
      </trkpt>
      <trkpt lat="48.20849" lon="-3.05681">
        <ele>157</ele>
        <time>2015-05-13T11:19:39Z</time>
      </trkpt>
      <trkpt lat="48.20844" lon="-3.0569">
        <ele>159</ele>
        <time>2015-05-13T11:19:45Z</time>
      </trkpt>
      <trkpt lat="48.20842" lon="-3.05691">
        <ele>160</ele>
        <time>2015-05-13T11:19:48Z</time>
      </trkpt>
      <trkpt lat="48.20771" lon="-3.05961">
        <ele>158</ele>
        <time>2015-05-13T11:22:43Z</time>
      </trkpt>
      <trkpt lat="48.20751" lon="-3.05974">
        <ele>161</ele>
        <time>2015-05-13T11:23:04Z</time>
      </trkpt>
      <trkpt lat="48.20767" lon="-3.06054">
        <ele>162</ele>
        <time>2015-05-13T11:23:55Z</time>
      </trkpt>
      <trkpt lat="48.20772" lon="-3.06056">
        <ele>162</ele>
        <time>2015-05-13T11:23:57Z</time>
      </trkpt>
      <trkpt lat="48.20784" lon="-3.06292">
        <ele>168</ele>
        <time>2015-05-13T11:26:13Z</time>
      </trkpt>
      <trkpt lat="48.20787" lon="-3.06294">
        <ele>168</ele>
        <time>2015-05-13T11:26:18Z</time>
      </trkpt>
      <trkpt lat="48.2079" lon="-3.06383">
        <ele>168</ele>
        <time>2015-05-13T11:27:26Z</time>
      </trkpt>
      <trkpt lat="48.20788" lon="-3.06379">
        <ele>176</ele>
        <time>2015-05-13T11:31:12Z</time>
      </trkpt>
      <trkpt lat="48.20787" lon="-3.06379">
        <ele>176</ele>
        <time>2015-05-13T11:31:23Z</time>
      </trkpt>
      <trkpt lat="48.2079" lon="-3.06378">
        <ele>176</ele>
        <time>2015-05-13T11:31:30Z</time>
      </trkpt>
      <trkpt lat="48.20789" lon="-3.06376">
        <ele>176</ele>
        <time>2015-05-13T11:31:32Z</time>
      </trkpt>
      <trkpt lat="48.20789" lon="-3.06378">
        <ele>177</ele>
        <time>2015-05-13T11:31:38Z</time>
      </trkpt>
      <trkpt lat="48.20786" lon="-3.06378">
        <ele>178</ele>
        <time>2015-05-13T11:31:45Z</time>
      </trkpt>
      <trkpt lat="48.20785" lon="-3.06373">
        <ele>178</ele>
        <time>2015-05-13T11:31:50Z</time>
      </trkpt>
      <trkpt lat="48.20788" lon="-3.06375">
        <ele>178</ele>
        <time>2015-05-13T11:31:55Z</time>
      </trkpt>
      <trkpt lat="48.2079" lon="-3.06383">
        <ele>178</ele>
        <time>2015-05-13T11:32:07Z</time>
      </trkpt>
      <trkpt lat="48.20789" lon="-3.06384">
        <ele>178</ele>
        <time>2015-05-13T11:32:20Z</time>
      </trkpt>
      <trkpt lat="48.20788" lon="-3.06383">
        <ele>178</ele>
        <time>2015-05-13T11:32:28Z</time>
      </trkpt>
      <trkpt lat="48.20788" lon="-3.06382">
        <ele>178</ele>
        <time>2015-05-13T11:32:35Z</time>
      </trkpt>
      <trkpt lat="48.20789" lon="-3.06382">
        <ele>177</ele>
        <time>2015-05-13T11:32:45Z</time>
      </trkpt>
      <trkpt lat="48.20788" lon="-3.06381">
        <ele>175</ele>
        <time>2015-05-13T11:32:56Z</time>
      </trkpt>
      <trkpt lat="48.20787" lon="-3.06385">
        <ele>173</ele>
        <time>2015-05-13T11:33:09Z</time>
      </trkpt>
      <trkpt lat="48.20788" lon="-3.06384">
        <ele>173</ele>
        <time>2015-05-13T11:33:13Z</time>
      </trkpt>
      <trkpt lat="48.20787" lon="-3.06384">
        <ele>173</ele>
        <time>2015-05-13T11:33:25Z</time>
      </trkpt>
      <trkpt lat="48.20782" lon="-3.06377">
        <ele>173</ele>
        <time>2015-05-13T11:33:37Z</time>
      </trkpt>
      <trkpt lat="48.20784" lon="-3.06373">
        <ele>172</ele>
        <time>2015-05-13T11:33:45Z</time>
      </trkpt>
      <trkpt lat="48.20783" lon="-3.06371">
        <ele>172</ele>
        <time>2015-05-13T11:33:48Z</time>
      </trkpt>
      <trkpt lat="48.20778" lon="-3.06378">
        <ele>171</ele>
        <time>2015-05-13T11:33:56Z</time>
      </trkpt>
      <trkpt lat="48.2077" lon="-3.06412">
        <ele>167</ele>
        <time>2015-05-13T11:34:19Z</time>
      </trkpt>
      <trkpt lat="48.20762" lon="-3.0642">
        <ele>167</ele>
        <time>2015-05-13T11:34:32Z</time>
      </trkpt>
      <trkpt lat="48.20747" lon="-3.06505">
        <ele>155</ele>
        <time>2015-05-13T11:35:34Z</time>
      </trkpt>
      <trkpt lat="48.20743" lon="-3.06504">
        <ele>155</ele>
        <time>2015-05-13T11:35:39Z</time>
      </trkpt>
      <trkpt lat="48.20742" lon="-3.06505">
        <ele>155</ele>
        <time>2015-05-13T11:35:41Z</time>
      </trkpt>
      <trkpt lat="48.2074" lon="-3.06504">
        <ele>155</ele>
        <time>2015-05-13T11:35:45Z</time>
      </trkpt>
      <trkpt lat="48.20742" lon="-3.06504">
        <ele>155</ele>
        <time>2015-05-13T11:35:54Z</time>
      </trkpt>
      <trkpt lat="48.20743" lon="-3.06505">
        <ele>155</ele>
        <time>2015-05-13T11:35:56Z</time>
      </trkpt>
      <trkpt lat="48.20676" lon="-3.06773">
        <ele>134</ele>
        <time>2015-05-13T11:37:57Z</time>
      </trkpt>
      <trkpt lat="48.20677" lon="-3.06771">
        <ele>134</ele>
        <time>2015-05-13T11:38:05Z</time>
      </trkpt>
      <trkpt lat="48.20676" lon="-3.06773">
        <ele>134</ele>
        <time>2015-05-13T11:38:08Z</time>
      </trkpt>
      <trkpt lat="48.20674" lon="-3.06772">
        <ele>134</ele>
        <time>2015-05-13T11:38:21Z</time>
      </trkpt>
      <trkpt lat="48.20676" lon="-3.06765">
        <ele>133</ele>
        <time>2015-05-13T11:38:39Z</time>
      </trkpt>
      <trkpt lat="48.20672" lon="-3.06772">
        <ele>126</ele>
        <time>2015-05-13T11:39:00Z</time>
      </trkpt>
      <trkpt lat="48.20674" lon="-3.06768">
        <ele>126</ele>
        <time>2015-05-13T11:39:12Z</time>
      </trkpt>
      <trkpt lat="48.20653" lon="-3.06904">
        <ele>126</ele>
        <time>2015-05-13T11:40:25Z</time>
      </trkpt>
      <trkpt lat="48.20654" lon="-3.06902">
        <ele>124</ele>
        <time>2015-05-13T11:40:35Z</time>
      </trkpt>
      <trkpt lat="48.20652" lon="-3.06905">
        <ele>122</ele>
        <time>2015-05-13T11:40:49Z</time>
      </trkpt>
      <trkpt lat="48.20653" lon="-3.06906">
        <ele>122</ele>
        <time>2015-05-13T11:40:51Z</time>
      </trkpt>
      <trkpt lat="48.20654" lon="-3.06903">
        <ele>122</ele>
        <time>2015-05-13T11:40:54Z</time>
      </trkpt>
      <trkpt lat="48.20651" lon="-3.06907">
        <ele>122</ele>
        <time>2015-05-13T11:41:03Z</time>
      </trkpt>
      <trkpt lat="48.20651" lon="-3.0691">
        <ele>122</ele>
        <time>2015-05-13T11:41:05Z</time>
      </trkpt>
      <trkpt lat="48.20654" lon="-3.06911">
        <ele>123</ele>
        <time>2015-05-13T11:41:07Z</time>
      </trkpt>
      <trkpt lat="48.20653" lon="-3.06925">
        <ele>127</ele>
        <time>2015-05-13T11:41:44Z</time>
      </trkpt>
      <trkpt lat="48.20654" lon="-3.06925">
        <ele>127</ele>
        <time>2015-05-13T11:41:47Z</time>
      </trkpt>
      <trkpt lat="48.20655" lon="-3.06956">
        <ele>127</ele>
        <time>2015-05-13T11:42:07Z</time>
      </trkpt>
      <trkpt lat="48.20648" lon="-3.06957">
        <ele>123</ele>
        <time>2015-05-13T11:42:16Z</time>
      </trkpt>
      <trkpt lat="48.20627" lon="-3.06987">
        <ele>117</ele>
        <time>2015-05-13T11:43:25Z</time>
      </trkpt>
      <trkpt lat="48.20626" lon="-3.06987">
        <ele>117</ele>
        <time>2015-05-13T11:44:41Z</time>
      </trkpt>
      <trkpt lat="48.20625" lon="-3.06989">
        <ele>117</ele>
        <time>2015-05-13T11:44:56Z</time>
      </trkpt>
      <trkpt lat="48.20625" lon="-3.06987">
        <ele>117</ele>
        <time>2015-05-13T11:45:21Z</time>
      </trkpt>
      <trkpt lat="48.20626" lon="-3.06986">
        <ele>117</ele>
        <time>2015-05-13T11:45:23Z</time>
      </trkpt>
      <trkpt lat="48.20625" lon="-3.06984">
        <ele>117</ele>
        <time>2015-05-13T11:45:26Z</time>
      </trkpt>
      <trkpt lat="48.20626" lon="-3.06984">
        <ele>117</ele>
        <time>2015-05-13T11:45:33Z</time>
      </trkpt>
      <trkpt lat="48.20637" lon="-3.06964">
        <ele>117</ele>
        <time>2015-05-13T11:46:34Z</time>
      </trkpt>
      <trkpt lat="48.20636" lon="-3.06965">
        <ele>117</ele>
        <time>2015-05-13T11:46:47Z</time>
      </trkpt>
      <trkpt lat="48.20646" lon="-3.06958">
        <ele>117</ele>
        <time>2015-05-13T11:47:20Z</time>
      </trkpt>
      <trkpt lat="48.20645" lon="-3.06951">
        <ele>119</ele>
        <time>2015-05-13T11:47:39Z</time>
      </trkpt>
      <trkpt lat="48.20651" lon="-3.06948">
        <ele>120</ele>
        <time>2015-05-13T11:48:10Z</time>
      </trkpt>
      <trkpt lat="48.20654" lon="-3.06949">
        <ele>120</ele>
        <time>2015-05-13T11:48:15Z</time>
      </trkpt>
      <trkpt lat="48.20692" lon="-3.07104">
        <ele>118</ele>
        <time>2015-05-13T11:50:44Z</time>
      </trkpt>
      <trkpt lat="48.20691" lon="-3.07111">
        <ele>118</ele>
        <time>2015-05-13T11:50:48Z</time>
      </trkpt>
      <trkpt lat="48.20892" lon="-3.07441">
        <ele>123</ele>
        <time>2015-05-13T11:55:28Z</time>
      </trkpt>
      <trkpt lat="48.20873" lon="-3.07384">
        <ele>133</ele>
        <time>2015-05-13T11:56:19Z</time>
      </trkpt>
      <trkpt lat="48.20885" lon="-3.07361">
        <ele>138</ele>
        <time>2015-05-13T11:56:40Z</time>
      </trkpt>
      <trkpt lat="48.20884" lon="-3.0735">
        <ele>142</ele>
        <time>2015-05-13T11:56:48Z</time>
      </trkpt>
      <trkpt lat="48.20892" lon="-3.07337">
        <ele>143</ele>
        <time>2015-05-13T11:57:00Z</time>
      </trkpt>
      <trkpt lat="48.20894" lon="-3.07336">
        <ele>143</ele>
        <time>2015-05-13T11:57:02Z</time>
      </trkpt>
      <trkpt lat="48.20895" lon="-3.07334">
        <ele>143</ele>
        <time>2015-05-13T11:57:06Z</time>
      </trkpt>
      <trkpt lat="48.20898" lon="-3.07334">
        <ele>145</ele>
        <time>2015-05-13T11:57:09Z</time>
      </trkpt>
      <trkpt lat="48.209" lon="-3.07336">
        <ele>145</ele>
        <time>2015-05-13T11:57:12Z</time>
      </trkpt>
      <trkpt lat="48.20901" lon="-3.07324">
        <ele>151</ele>
        <time>2015-05-13T11:57:24Z</time>
      </trkpt>
      <trkpt lat="48.20918" lon="-3.07295">
        <ele>156</ele>
        <time>2015-05-13T11:57:52Z</time>
      </trkpt>
      <trkpt lat="48.20934" lon="-3.07285">
        <ele>157</ele>
        <time>2015-05-13T11:58:05Z</time>
      </trkpt>
      <trkpt lat="48.20936" lon="-3.07285">
        <ele>157</ele>
        <time>2015-05-13T11:58:07Z</time>
      </trkpt>
      <trkpt lat="48.2094" lon="-3.07281">
        <ele>156</ele>
        <time>2015-05-13T11:58:12Z</time>
      </trkpt>
      <trkpt lat="48.20939" lon="-3.07278">
        <ele>156</ele>
        <time>2015-05-13T11:58:14Z</time>
      </trkpt>
      <trkpt lat="48.20943" lon="-3.07273">
        <ele>156</ele>
        <time>2015-05-13T11:58:20Z</time>
      </trkpt>
      <trkpt lat="48.20963" lon="-3.07277">
        <ele>151</ele>
        <time>2015-05-13T11:58:39Z</time>
      </trkpt>
      <trkpt lat="48.20963" lon="-3.07288">
        <ele>147</ele>
        <time>2015-05-13T11:58:47Z</time>
      </trkpt>
      <trkpt lat="48.2097" lon="-3.07292">
        <ele>146</ele>
        <time>2015-05-13T11:58:54Z</time>
      </trkpt>
      <trkpt lat="48.2097" lon="-3.07294">
        <ele>146</ele>
        <time>2015-05-13T11:58:56Z</time>
      </trkpt>
      <trkpt lat="48.20992" lon="-3.07307">
        <ele>146</ele>
        <time>2015-05-13T11:59:27Z</time>
      </trkpt>
      <trkpt lat="48.21019" lon="-3.07278">
        <ele>139</ele>
        <time>2015-05-13T12:00:05Z</time>
      </trkpt>
      <trkpt lat="48.21037" lon="-3.07278">
        <ele>137</ele>
        <time>2015-05-13T12:00:29Z</time>
      </trkpt>
      <trkpt lat="48.2105" lon="-3.07308">
        <ele>147</ele>
        <time>2015-05-13T12:00:55Z</time>
      </trkpt>
      <trkpt lat="48.21058" lon="-3.07314">
        <ele>150</ele>
        <time>2015-05-13T12:01:05Z</time>
      </trkpt>
      <trkpt lat="48.21048" lon="-3.07404">
        <ele>142</ele>
        <time>2015-05-13T12:02:01Z</time>
      </trkpt>
      <trkpt lat="48.21044" lon="-3.0741">
        <ele>141</ele>
        <time>2015-05-13T12:02:08Z</time>
      </trkpt>
      <trkpt lat="48.21045" lon="-3.07421">
        <ele>141</ele>
        <time>2015-05-13T12:02:17Z</time>
      </trkpt>
      <trkpt lat="48.21051" lon="-3.07424">
        <ele>141</ele>
        <time>2015-05-13T12:02:25Z</time>
      </trkpt>
      <trkpt lat="48.21052" lon="-3.07438">
        <ele>139</ele>
        <time>2015-05-13T12:02:35Z</time>
      </trkpt>
      <trkpt lat="48.21055" lon="-3.07443">
        <ele>139</ele>
        <time>2015-05-13T12:02:39Z</time>
      </trkpt>
      <trkpt lat="48.21059" lon="-3.07443">
        <ele>139</ele>
        <time>2015-05-13T12:02:43Z</time>
      </trkpt>
      <trkpt lat="48.21068" lon="-3.07435">
        <ele>139</ele>
        <time>2015-05-13T12:02:55Z</time>
      </trkpt>
      <trkpt lat="48.21071" lon="-3.07436">
        <ele>139</ele>
        <time>2015-05-13T12:02:57Z</time>
      </trkpt>
      <trkpt lat="48.21078" lon="-3.07445">
        <ele>137</ele>
        <time>2015-05-13T12:03:05Z</time>
      </trkpt>
      <trkpt lat="48.21077" lon="-3.07455">
        <ele>134</ele>
        <time>2015-05-13T12:03:14Z</time>
      </trkpt>
      <trkpt lat="48.21118" lon="-3.0746">
        <ele>130</ele>
        <time>2015-05-13T12:04:10Z</time>
      </trkpt>
      <trkpt lat="48.21132" lon="-3.07419">
        <ele>125</ele>
        <time>2015-05-13T12:04:44Z</time>
      </trkpt>
      <trkpt lat="48.21135" lon="-3.07421">
        <ele>125</ele>
        <time>2015-05-13T12:04:49Z</time>
      </trkpt>
      <trkpt lat="48.21131" lon="-3.07451">
        <ele>124</ele>
        <time>2015-05-13T12:05:09Z</time>
      </trkpt>
      <trkpt lat="48.21127" lon="-3.07453">
        <ele>123</ele>
        <time>2015-05-13T12:05:13Z</time>
      </trkpt>
      <trkpt lat="48.21126" lon="-3.07453">
        <ele>122</ele>
        <time>2015-05-13T12:05:15Z</time>
      </trkpt>
      <trkpt lat="48.21123" lon="-3.07459">
        <ele>119</ele>
        <time>2015-05-13T12:05:24Z</time>
      </trkpt>
      <trkpt lat="48.2112" lon="-3.07459">
        <ele>119</ele>
        <time>2015-05-13T12:05:26Z</time>
      </trkpt>
      <trkpt lat="48.21124" lon="-3.07457">
        <ele>119</ele>
        <time>2015-05-13T12:05:33Z</time>
      </trkpt>
      <trkpt lat="48.21138" lon="-3.07407">
        <ele>124</ele>
        <time>2015-05-13T12:06:09Z</time>
      </trkpt>
      <trkpt lat="48.21175" lon="-3.07384">
        <ele>121</ele>
        <time>2015-05-13T12:06:39Z</time>
      </trkpt>
      <trkpt lat="48.21185" lon="-3.07357">
        <ele>120</ele>
        <time>2015-05-13T12:07:01Z</time>
      </trkpt>
      <trkpt lat="48.21195" lon="-3.07357">
        <ele>123</ele>
        <time>2015-05-13T12:07:11Z</time>
      </trkpt>
      <trkpt lat="48.21197" lon="-3.07353">
        <ele>123</ele>
        <time>2015-05-13T12:07:14Z</time>
      </trkpt>
      <trkpt lat="48.21194" lon="-3.0734">
        <ele>128</ele>
        <time>2015-05-13T12:07:31Z</time>
      </trkpt>
      <trkpt lat="48.21198" lon="-3.07335">
        <ele>128</ele>
        <time>2015-05-13T12:07:35Z</time>
      </trkpt>
      <trkpt lat="48.21196" lon="-3.07327">
        <ele>130</ele>
        <time>2015-05-13T12:07:39Z</time>
      </trkpt>
      <trkpt lat="48.21235" lon="-3.07289">
        <ele>135</ele>
        <time>2015-05-13T12:08:16Z</time>
      </trkpt>
      <trkpt lat="48.21246" lon="-3.07302">
        <ele>138</ele>
        <time>2015-05-13T12:08:28Z</time>
      </trkpt>
      <trkpt lat="48.21247" lon="-3.07302">
        <ele>139</ele>
        <time>2015-05-13T12:08:30Z</time>
      </trkpt>
      <trkpt lat="48.21245" lon="-3.07301">
        <ele>140</ele>
        <time>2015-05-13T12:08:34Z</time>
      </trkpt>
      <trkpt lat="48.21244" lon="-3.07303">
        <ele>140</ele>
        <time>2015-05-13T12:08:36Z</time>
      </trkpt>
      <trkpt lat="48.21244" lon="-3.07347">
        <ele>151</ele>
        <time>2015-05-13T12:09:08Z</time>
      </trkpt>
      <trkpt lat="48.21242" lon="-3.07348">
        <ele>151</ele>
        <time>2015-05-13T12:09:10Z</time>
      </trkpt>
      <trkpt lat="48.21242" lon="-3.07355">
        <ele>151</ele>
        <time>2015-05-13T12:09:17Z</time>
      </trkpt>
      <trkpt lat="48.21241" lon="-3.07355">
        <ele>152</ele>
        <time>2015-05-13T12:09:21Z</time>
      </trkpt>
      <trkpt lat="48.21243" lon="-3.07355">
        <ele>152</ele>
        <time>2015-05-13T12:09:25Z</time>
      </trkpt>
      <trkpt lat="48.21248" lon="-3.07374">
        <ele>148</ele>
        <time>2015-05-13T12:09:41Z</time>
      </trkpt>
      <trkpt lat="48.2125" lon="-3.07374">
        <ele>146</ele>
        <time>2015-05-13T12:09:43Z</time>
      </trkpt>
      <trkpt lat="48.2125" lon="-3.07379">
        <ele>143</ele>
        <time>2015-05-13T12:09:48Z</time>
      </trkpt>
      <trkpt lat="48.21252" lon="-3.07382">
        <ele>142</ele>
        <time>2015-05-13T12:09:53Z</time>
      </trkpt>
      <trkpt lat="48.21247" lon="-3.07388">
        <ele>141</ele>
        <time>2015-05-13T12:09:59Z</time>
      </trkpt>
      <trkpt lat="48.21253" lon="-3.0739">
        <ele>141</ele>
        <time>2015-05-13T12:10:10Z</time>
      </trkpt>
      <trkpt lat="48.21258" lon="-3.074">
        <ele>143</ele>
        <time>2015-05-13T12:10:19Z</time>
      </trkpt>
      <trkpt lat="48.21206" lon="-3.07575">
        <ele>144</ele>
        <time>2015-05-13T12:13:13Z</time>
      </trkpt>
      <trkpt lat="48.21207" lon="-3.07717">
        <ele>147</ele>
        <time>2015-05-13T12:14:46Z</time>
      </trkpt>
      <trkpt lat="48.21242" lon="-3.07729">
        <ele>148</ele>
        <time>2015-05-13T12:15:18Z</time>
      </trkpt>
      <trkpt lat="48.21256" lon="-3.07716">
        <ele>156</ele>
        <time>2015-05-13T12:15:36Z</time>
      </trkpt>
      <trkpt lat="48.2127" lon="-3.07722">
        <ele>157</ele>
        <time>2015-05-13T12:15:47Z</time>
      </trkpt>
      <trkpt lat="48.21277" lon="-3.07739">
        <ele>157</ele>
        <time>2015-05-13T12:16:09Z</time>
      </trkpt>
      <trkpt lat="48.21296" lon="-3.07748">
        <ele>154</ele>
        <time>2015-05-13T12:16:28Z</time>
      </trkpt>
      <trkpt lat="48.21297" lon="-3.0775">
        <ele>152</ele>
        <time>2015-05-13T12:16:30Z</time>
      </trkpt>
      <trkpt lat="48.21373" lon="-3.07776">
        <ele>149</ele>
        <time>2015-05-13T12:17:34Z</time>
      </trkpt>
      <trkpt lat="48.21395" lon="-3.07781">
        <ele>142</ele>
        <time>2015-05-13T12:17:58Z</time>
      </trkpt>
      <trkpt lat="48.21396" lon="-3.07783">
        <ele>142</ele>
        <time>2015-05-13T12:18:00Z</time>
      </trkpt>
      <trkpt lat="48.21402" lon="-3.07779">
        <ele>142</ele>
        <time>2015-05-13T12:18:09Z</time>
      </trkpt>
      <trkpt lat="48.21399" lon="-3.07781">
        <ele>143</ele>
        <time>2015-05-13T12:18:12Z</time>
      </trkpt>
      <trkpt lat="48.21412" lon="-3.07847">
        <ele>154</ele>
        <time>2015-05-13T12:19:53Z</time>
      </trkpt>
      <trkpt lat="48.21418" lon="-3.07852">
        <ele>153</ele>
        <time>2015-05-13T12:20:31Z</time>
      </trkpt>
      <trkpt lat="48.21418" lon="-3.0785">
        <ele>153</ele>
        <time>2015-05-13T12:20:36Z</time>
      </trkpt>
      <trkpt lat="48.21422" lon="-3.07849">
        <ele>153</ele>
        <time>2015-05-13T12:20:40Z</time>
      </trkpt>
      <trkpt lat="48.21427" lon="-3.07856">
        <ele>153</ele>
        <time>2015-05-13T12:20:48Z</time>
      </trkpt>
      <trkpt lat="48.21424" lon="-3.07879">
        <ele>143</ele>
        <time>2015-05-13T12:21:15Z</time>
      </trkpt>
      <trkpt lat="48.21427" lon="-3.07886">
        <ele>140</ele>
        <time>2015-05-13T12:21:21Z</time>
      </trkpt>
      <trkpt lat="48.21426" lon="-3.07891">
        <ele>139</ele>
        <time>2015-05-13T12:21:23Z</time>
      </trkpt>
      <trkpt lat="48.21421" lon="-3.07892">
        <ele>139</ele>
        <time>2015-05-13T12:21:26Z</time>
      </trkpt>
      <trkpt lat="48.21418" lon="-3.07971">
        <ele>132</ele>
        <time>2015-05-13T12:22:18Z</time>
      </trkpt>
      <trkpt lat="48.21404" lon="-3.07993">
        <ele>140</ele>
        <time>2015-05-13T12:22:34Z</time>
      </trkpt>
      <trkpt lat="48.21403" lon="-3.07992">
        <ele>141</ele>
        <time>2015-05-13T12:22:45Z</time>
      </trkpt>
      <trkpt lat="48.214" lon="-3.07993">
        <ele>141</ele>
        <time>2015-05-13T12:22:48Z</time>
      </trkpt>
      <trkpt lat="48.21399" lon="-3.07995">
        <ele>142</ele>
        <time>2015-05-13T12:22:51Z</time>
      </trkpt>
      <trkpt lat="48.21408" lon="-3.07996">
        <ele>148</ele>
        <time>2015-05-13T12:23:16Z</time>
      </trkpt>
      <trkpt lat="48.21403" lon="-3.07996">
        <ele>149</ele>
        <time>2015-05-13T12:23:31Z</time>
      </trkpt>
      <trkpt lat="48.21404" lon="-3.07996">
        <ele>151</ele>
        <time>2015-05-13T12:23:43Z</time>
      </trkpt>
      <trkpt lat="48.21407" lon="-3.07993">
        <ele>144</ele>
        <time>2015-05-13T12:23:59Z</time>
      </trkpt>
      <trkpt lat="48.21405" lon="-3.07992">
        <ele>142</ele>
        <time>2015-05-13T12:24:02Z</time>
      </trkpt>
      <trkpt lat="48.214" lon="-3.07991">
        <ele>142</ele>
        <time>2015-05-13T12:24:08Z</time>
      </trkpt>
      <trkpt lat="48.21402" lon="-3.07989">
        <ele>142</ele>
        <time>2015-05-13T12:24:11Z</time>
      </trkpt>
      <trkpt lat="48.21404" lon="-3.07993">
        <ele>142</ele>
        <time>2015-05-13T12:24:17Z</time>
      </trkpt>
      <trkpt lat="48.21401" lon="-3.08007">
        <ele>144</ele>
        <time>2015-05-13T12:24:30Z</time>
      </trkpt>
      <trkpt lat="48.21388" lon="-3.08049">
        <ele>146</ele>
        <time>2015-05-13T12:25:16Z</time>
      </trkpt>
      <trkpt lat="48.21384" lon="-3.08052">
        <ele>146</ele>
        <time>2015-05-13T12:25:22Z</time>
      </trkpt>
      <trkpt lat="48.21376" lon="-3.08053">
        <ele>148</ele>
        <time>2015-05-13T12:25:31Z</time>
      </trkpt>
      <trkpt lat="48.21366" lon="-3.08065">
        <ele>152</ele>
        <time>2015-05-13T12:25:45Z</time>
      </trkpt>
      <trkpt lat="48.21357" lon="-3.08066">
        <ele>153</ele>
        <time>2015-05-13T12:25:57Z</time>
      </trkpt>
      <trkpt lat="48.21356" lon="-3.08068">
        <ele>154</ele>
        <time>2015-05-13T12:26:00Z</time>
      </trkpt>
      <trkpt lat="48.21345" lon="-3.08071">
        <ele>154</ele>
        <time>2015-05-13T12:26:15Z</time>
      </trkpt>
      <trkpt lat="48.21344" lon="-3.08072">
        <ele>154</ele>
        <time>2015-05-13T12:26:17Z</time>
      </trkpt>
      <trkpt lat="48.21341" lon="-3.08069">
        <ele>154</ele>
        <time>2015-05-13T12:26:24Z</time>
      </trkpt>
      <trkpt lat="48.2134" lon="-3.0807">
        <ele>154</ele>
        <time>2015-05-13T12:28:27Z</time>
      </trkpt>
      <trkpt lat="48.21341" lon="-3.08068">
        <ele>154</ele>
        <time>2015-05-13T12:28:59Z</time>
      </trkpt>
      <trkpt lat="48.21343" lon="-3.08068">
        <ele>154</ele>
        <time>2015-05-13T12:29:02Z</time>
      </trkpt>
      <trkpt lat="48.21356" lon="-3.0817">
        <ele>154</ele>
        <time>2015-05-13T12:31:05Z</time>
      </trkpt>
      <trkpt lat="48.21378" lon="-3.0824">
        <ele>155</ele>
        <time>2015-05-13T12:31:57Z</time>
      </trkpt>
      <trkpt lat="48.21387" lon="-3.08205">
        <ele>152</ele>
        <time>2015-05-13T12:32:29Z</time>
      </trkpt>
      <trkpt lat="48.21395" lon="-3.082">
        <ele>152</ele>
        <time>2015-05-13T12:33:03Z</time>
      </trkpt>
      <trkpt lat="48.21443" lon="-3.08234">
        <ele>151</ele>
        <time>2015-05-13T12:34:40Z</time>
      </trkpt>
      <trkpt lat="48.21442" lon="-3.08235">
        <ele>150</ele>
        <time>2015-05-13T12:34:47Z</time>
      </trkpt>
      <trkpt lat="48.21447" lon="-3.0824">
        <ele>148</ele>
        <time>2015-05-13T12:35:06Z</time>
      </trkpt>
      <trkpt lat="48.21446" lon="-3.08239">
        <ele>148</ele>
        <time>2015-05-13T12:35:13Z</time>
      </trkpt>
      <trkpt lat="48.21445" lon="-3.08243">
        <ele>148</ele>
        <time>2015-05-13T12:35:33Z</time>
      </trkpt>
      <trkpt lat="48.21391" lon="-3.08203">
        <ele>155</ele>
        <time>2015-05-13T12:36:40Z</time>
      </trkpt>
      <trkpt lat="48.21382" lon="-3.08242">
        <ele>155</ele>
        <time>2015-05-13T12:37:17Z</time>
      </trkpt>
      <trkpt lat="48.21381" lon="-3.08242">
        <ele>155</ele>
        <time>2015-05-13T12:37:19Z</time>
      </trkpt>
      <trkpt lat="48.21354" lon="-3.08158">
        <ele>157</ele>
        <time>2015-05-13T12:38:18Z</time>
      </trkpt>
      <trkpt lat="48.21352" lon="-3.08137">
        <ele>157</ele>
        <time>2015-05-13T12:39:06Z</time>
      </trkpt>
      <trkpt lat="48.21344" lon="-3.08149">
        <ele>155</ele>
        <time>2015-05-13T12:39:27Z</time>
      </trkpt>
      <trkpt lat="48.21338" lon="-3.08142">
        <ele>154</ele>
        <time>2015-05-13T12:39:38Z</time>
      </trkpt>
      <trkpt lat="48.21338" lon="-3.08144">
        <ele>153</ele>
        <time>2015-05-13T12:39:41Z</time>
      </trkpt>
      <trkpt lat="48.21336" lon="-3.08144">
        <ele>152</ele>
        <time>2015-05-13T12:39:44Z</time>
      </trkpt>
      <trkpt lat="48.21326" lon="-3.08101">
        <ele>150</ele>
        <time>2015-05-13T12:40:08Z</time>
      </trkpt>
      <trkpt lat="48.21327" lon="-3.08085">
        <ele>149</ele>
        <time>2015-05-13T12:40:19Z</time>
      </trkpt>
      <trkpt lat="48.21301" lon="-3.07986">
        <ele>130</ele>
        <time>2015-05-13T12:41:38Z</time>
      </trkpt>
      <trkpt lat="48.21299" lon="-3.07986">
        <ele>130</ele>
        <time>2015-05-13T12:41:40Z</time>
      </trkpt>
      <trkpt lat="48.21299" lon="-3.0799">
        <ele>130</ele>
        <time>2015-05-13T12:41:49Z</time>
      </trkpt>
      <trkpt lat="48.213" lon="-3.07992">
        <ele>130</ele>
        <time>2015-05-13T12:42:00Z</time>
      </trkpt>
      <trkpt lat="48.21299" lon="-3.07989">
        <ele>129</ele>
        <time>2015-05-13T12:42:17Z</time>
      </trkpt>
      <trkpt lat="48.21283" lon="-3.08004">
        <ele>128</ele>
        <time>2015-05-13T12:42:35Z</time>
      </trkpt>
      <trkpt lat="48.21283" lon="-3.08005">
        <ele>126</ele>
        <time>2015-05-13T12:42:47Z</time>
      </trkpt>
      <trkpt lat="48.21259" lon="-3.08064">
        <ele>123</ele>
        <time>2015-05-13T12:43:27Z</time>
      </trkpt>
      <trkpt lat="48.21249" lon="-3.08054">
        <ele>123</ele>
        <time>2015-05-13T12:43:49Z</time>
      </trkpt>
      <trkpt lat="48.21255" lon="-3.08065">
        <ele>123</ele>
        <time>2015-05-13T12:44:03Z</time>
      </trkpt>
      <trkpt lat="48.21207" lon="-3.08243">
        <ele>119</ele>
        <time>2015-05-13T12:45:53Z</time>
      </trkpt>
      <trkpt lat="48.21206" lon="-3.08243">
        <ele>121</ele>
        <time>2015-05-13T12:46:05Z</time>
      </trkpt>
      <trkpt lat="48.2119" lon="-3.08272">
        <ele>121</ele>
        <time>2015-05-13T12:46:55Z</time>
      </trkpt>
      <trkpt lat="48.21187" lon="-3.0827">
        <ele>124</ele>
        <time>2015-05-13T12:47:03Z</time>
      </trkpt>
      <trkpt lat="48.21186" lon="-3.08271">
        <ele>128</ele>
        <time>2015-05-13T12:47:08Z</time>
      </trkpt>
      <trkpt lat="48.21189" lon="-3.08275">
        <ele>129</ele>
        <time>2015-05-13T12:47:17Z</time>
      </trkpt>
      <trkpt lat="48.21152" lon="-3.08292">
        <ele>124</ele>
        <time>2015-05-13T12:48:05Z</time>
      </trkpt>
      <trkpt lat="48.21132" lon="-3.08339">
        <ele>123</ele>
        <time>2015-05-13T12:48:44Z</time>
      </trkpt>
      <trkpt lat="48.2113" lon="-3.08339">
        <ele>123</ele>
        <time>2015-05-13T12:48:46Z</time>
      </trkpt>
      <trkpt lat="48.2112" lon="-3.08361">
        <ele>124</ele>
        <time>2015-05-13T12:50:27Z</time>
      </trkpt>
      <trkpt lat="48.21121" lon="-3.08356">
        <ele>125</ele>
        <time>2015-05-13T12:50:53Z</time>
      </trkpt>
      <trkpt lat="48.21122" lon="-3.08356">
        <ele>125</ele>
        <time>2015-05-13T12:50:55Z</time>
      </trkpt>
      <trkpt lat="48.21123" lon="-3.08356">
        <ele>125</ele>
        <time>2015-05-13T12:50:58Z</time>
      </trkpt>
      <trkpt lat="48.21124" lon="-3.08355">
        <ele>125</ele>
        <time>2015-05-13T12:51:06Z</time>
      </trkpt>
      <trkpt lat="48.21127" lon="-3.0836">
        <ele>125</ele>
        <time>2015-05-13T12:51:21Z</time>
      </trkpt>
      <trkpt lat="48.21135" lon="-3.08513">
        <ele>132</ele>
        <time>2015-05-13T12:53:11Z</time>
      </trkpt>
      <trkpt lat="48.21133" lon="-3.08514">
        <ele>132</ele>
        <time>2015-05-13T12:53:13Z</time>
      </trkpt>
      <trkpt lat="48.21137" lon="-3.08513">
        <ele>132</ele>
        <time>2015-05-13T12:53:18Z</time>
      </trkpt>
      <trkpt lat="48.21138" lon="-3.08513">
        <ele>132</ele>
        <time>2015-05-13T12:53:20Z</time>
      </trkpt>
      <trkpt lat="48.21136" lon="-3.0853">
        <ele>132</ele>
        <time>2015-05-13T12:53:41Z</time>
      </trkpt>
      <trkpt lat="48.21131" lon="-3.0853">
        <ele>132</ele>
        <time>2015-05-13T12:53:54Z</time>
      </trkpt>
      <trkpt lat="48.21133" lon="-3.08533">
        <ele>136</ele>
        <time>2015-05-13T12:54:10Z</time>
      </trkpt>
      <trkpt lat="48.21133" lon="-3.08531">
        <ele>136</ele>
        <time>2015-05-13T12:54:16Z</time>
      </trkpt>
      <trkpt lat="48.21134" lon="-3.08531">
        <ele>136</ele>
        <time>2015-05-13T12:54:18Z</time>
      </trkpt>
      <trkpt lat="48.2113" lon="-3.08527">
        <ele>137</ele>
        <time>2015-05-13T12:54:29Z</time>
      </trkpt>
      <trkpt lat="48.21154" lon="-3.0873">
        <ele>135</ele>
        <time>2015-05-13T12:56:43Z</time>
      </trkpt>
      <trkpt lat="48.21166" lon="-3.08821">
        <ele>130</ele>
        <time>2015-05-13T12:57:38Z</time>
      </trkpt>
      <trkpt lat="48.21143" lon="-3.08834">
        <ele>132</ele>
        <time>2015-05-13T12:57:54Z</time>
      </trkpt>
      <trkpt lat="48.21105" lon="-3.08808">
        <ele>134</ele>
        <time>2015-05-13T12:58:25Z</time>
      </trkpt>
      <trkpt lat="48.21107" lon="-3.08799">
        <ele>133</ele>
        <time>2015-05-13T12:58:36Z</time>
      </trkpt>
      <trkpt lat="48.211" lon="-3.088">
        <ele>130</ele>
        <time>2015-05-13T12:58:47Z</time>
      </trkpt>
      <trkpt lat="48.21101" lon="-3.08798">
        <ele>130</ele>
        <time>2015-05-13T12:58:50Z</time>
      </trkpt>
      <trkpt lat="48.21103" lon="-3.08799">
        <ele>130</ele>
        <time>2015-05-13T12:58:53Z</time>
      </trkpt>
      <trkpt lat="48.21107" lon="-3.08796">
        <ele>126</ele>
        <time>2015-05-13T12:58:59Z</time>
      </trkpt>
      <trkpt lat="48.21111" lon="-3.08798">
        <ele>125</ele>
        <time>2015-05-13T12:59:04Z</time>
      </trkpt>
      <trkpt lat="48.21109" lon="-3.08802">
        <ele>124</ele>
        <time>2015-05-13T12:59:06Z</time>
      </trkpt>
      <trkpt lat="48.21059" lon="-3.08781">
        <ele>119</ele>
        <time>2015-05-13T12:59:53Z</time>
      </trkpt>
      <trkpt lat="48.21059" lon="-3.08779">
        <ele>119</ele>
        <time>2015-05-13T13:00:04Z</time>
      </trkpt>
      <trkpt lat="48.21059" lon="-3.08777">
        <ele>119</ele>
        <time>2015-05-13T13:00:11Z</time>
      </trkpt>
      <trkpt lat="48.21058" lon="-3.08779">
        <ele>119</ele>
        <time>2015-05-13T13:00:17Z</time>
      </trkpt>
      <trkpt lat="48.21056" lon="-3.0878">
        <ele>119</ele>
        <time>2015-05-13T13:00:19Z</time>
      </trkpt>
      <trkpt lat="48.21018" lon="-3.08729">
        <ele>116</ele>
        <time>2015-05-13T13:01:01Z</time>
      </trkpt>
      <trkpt lat="48.21017" lon="-3.08737">
        <ele>120</ele>
        <time>2015-05-13T13:01:10Z</time>
      </trkpt>
      <trkpt lat="48.20999" lon="-3.08743">
        <ele>126</ele>
        <time>2015-05-13T13:01:32Z</time>
      </trkpt>
      <trkpt lat="48.20998" lon="-3.08741">
        <ele>126</ele>
        <time>2015-05-13T13:01:34Z</time>
      </trkpt>
      <trkpt lat="48.20995" lon="-3.08741">
        <ele>126</ele>
        <time>2015-05-13T13:01:36Z</time>
      </trkpt>
      <trkpt lat="48.2099" lon="-3.08745">
        <ele>128</ele>
        <time>2015-05-13T13:01:42Z</time>
      </trkpt>
      <trkpt lat="48.20991" lon="-3.0875">
        <ele>130</ele>
        <time>2015-05-13T13:01:50Z</time>
      </trkpt>
      <trkpt lat="48.20989" lon="-3.08752">
        <ele>131</ele>
        <time>2015-05-13T13:01:53Z</time>
      </trkpt>
      <trkpt lat="48.20991" lon="-3.08764">
        <ele>132</ele>
        <time>2015-05-13T13:02:04Z</time>
      </trkpt>
      <trkpt lat="48.20988" lon="-3.08768">
        <ele>132</ele>
        <time>2015-05-13T13:02:09Z</time>
      </trkpt>
      <trkpt lat="48.20937" lon="-3.08815">
        <ele>142</ele>
        <time>2015-05-13T13:03:31Z</time>
      </trkpt>
      <trkpt lat="48.20927" lon="-3.08813">
        <ele>142</ele>
        <time>2015-05-13T13:03:42Z</time>
      </trkpt>
      <trkpt lat="48.2092" lon="-3.08803">
        <ele>145</ele>
        <time>2015-05-13T13:03:59Z</time>
      </trkpt>
      <trkpt lat="48.20916" lon="-3.08802">
        <ele>148</ele>
        <time>2015-05-13T13:04:05Z</time>
      </trkpt>
      <trkpt lat="48.20903" lon="-3.08788">
        <ele>155</ele>
        <time>2015-05-13T13:04:35Z</time>
      </trkpt>
      <trkpt lat="48.20895" lon="-3.0879">
        <ele>157</ele>
        <time>2015-05-13T13:04:43Z</time>
      </trkpt>
      <trkpt lat="48.20866" lon="-3.08753">
        <ele>157</ele>
        <time>2015-05-13T13:05:24Z</time>
      </trkpt>
      <trkpt lat="48.20857" lon="-3.08751">
        <ele>157</ele>
        <time>2015-05-13T13:05:37Z</time>
      </trkpt>
      <trkpt lat="48.20854" lon="-3.08741">
        <ele>161</ele>
        <time>2015-05-13T13:06:07Z</time>
      </trkpt>
      <trkpt lat="48.2083" lon="-3.08724">
        <ele>156</ele>
        <time>2015-05-13T13:06:46Z</time>
      </trkpt>
      <trkpt lat="48.20827" lon="-3.08726">
        <ele>155</ele>
        <time>2015-05-13T13:06:51Z</time>
      </trkpt>
      <trkpt lat="48.20818" lon="-3.08717">
        <ele>152</ele>
        <time>2015-05-13T13:07:09Z</time>
      </trkpt>
      <trkpt lat="48.20816" lon="-3.08717">
        <ele>152</ele>
        <time>2015-05-13T13:07:11Z</time>
      </trkpt>
      <trkpt lat="48.20811" lon="-3.08721">
        <ele>152</ele>
        <time>2015-05-13T13:07:19Z</time>
      </trkpt>
      <trkpt lat="48.20811" lon="-3.08734">
        <ele>152</ele>
        <time>2015-05-13T13:07:36Z</time>
      </trkpt>
      <trkpt lat="48.20809" lon="-3.08734">
        <ele>152</ele>
        <time>2015-05-13T13:07:38Z</time>
      </trkpt>
      <trkpt lat="48.20804" lon="-3.08757">
        <ele>152</ele>
        <time>2015-05-13T13:08:10Z</time>
      </trkpt>
      <trkpt lat="48.20807" lon="-3.08763">
        <ele>153</ele>
        <time>2015-05-13T13:08:23Z</time>
      </trkpt>
      <trkpt lat="48.20797" lon="-3.08794">
        <ele>157</ele>
        <time>2015-05-13T13:09:06Z</time>
      </trkpt>
      <trkpt lat="48.20779" lon="-3.08789">
        <ele>159</ele>
        <time>2015-05-13T13:09:32Z</time>
      </trkpt>
      <trkpt lat="48.20781" lon="-3.08782">
        <ele>159</ele>
        <time>2015-05-13T13:09:38Z</time>
      </trkpt>
      <trkpt lat="48.20784" lon="-3.08781">
        <ele>159</ele>
        <time>2015-05-13T13:09:42Z</time>
      </trkpt>
      <trkpt lat="48.20786" lon="-3.08775">
        <ele>158</ele>
        <time>2015-05-13T13:09:53Z</time>
      </trkpt>
      <trkpt lat="48.20786" lon="-3.08773">
        <ele>157</ele>
        <time>2015-05-13T13:09:55Z</time>
      </trkpt>
      <trkpt lat="48.2079" lon="-3.08767">
        <ele>153</ele>
        <time>2015-05-13T13:10:05Z</time>
      </trkpt>
      <trkpt lat="48.20781" lon="-3.08753">
        <ele>152</ele>
        <time>2015-05-13T13:10:28Z</time>
      </trkpt>
      <trkpt lat="48.20792" lon="-3.08741">
        <ele>145</ele>
        <time>2015-05-13T13:10:46Z</time>
      </trkpt>
      <trkpt lat="48.2079" lon="-3.08715">
        <ele>146</ele>
        <time>2015-05-13T13:11:13Z</time>
      </trkpt>
      <trkpt lat="48.20789" lon="-3.08714">
        <ele>146</ele>
        <time>2015-05-13T13:11:17Z</time>
      </trkpt>
      <trkpt lat="48.20788" lon="-3.08716">
        <ele>146</ele>
        <time>2015-05-13T13:11:19Z</time>
      </trkpt>
      <trkpt lat="48.20789" lon="-3.08715">
        <ele>144</ele>
        <time>2015-05-13T13:11:25Z</time>
      </trkpt>
      <trkpt lat="48.20787" lon="-3.08716">
        <ele>140</ele>
        <time>2015-05-13T13:11:33Z</time>
      </trkpt>
      <trkpt lat="48.20786" lon="-3.08716">
        <ele>140</ele>
        <time>2015-05-13T13:11:35Z</time>
      </trkpt>
      <trkpt lat="48.20784" lon="-3.08711">
        <ele>140</ele>
        <time>2015-05-13T13:11:42Z</time>
      </trkpt>
      <trkpt lat="48.20786" lon="-3.08705">
        <ele>140</ele>
        <time>2015-05-13T13:11:50Z</time>
      </trkpt>
      <trkpt lat="48.20785" lon="-3.08701">
        <ele>140</ele>
        <time>2015-05-13T13:11:54Z</time>
      </trkpt>
      <trkpt lat="48.20782" lon="-3.087">
        <ele>140</ele>
        <time>2015-05-13T13:12:02Z</time>
      </trkpt>
      <trkpt lat="48.20778" lon="-3.08706">
        <ele>134</ele>
        <time>2015-05-13T13:12:12Z</time>
      </trkpt>
      <trkpt lat="48.20764" lon="-3.08694">
        <ele>129</ele>
        <time>2015-05-13T13:12:39Z</time>
      </trkpt>
      <trkpt lat="48.20765" lon="-3.08694">
        <ele>127</ele>
        <time>2015-05-13T13:12:43Z</time>
      </trkpt>
      <trkpt lat="48.20764" lon="-3.08674">
        <ele>121</ele>
        <time>2015-05-13T13:13:22Z</time>
      </trkpt>
      <trkpt lat="48.20761" lon="-3.08678">
        <ele>121</ele>
        <time>2015-05-13T13:13:37Z</time>
      </trkpt>
      <trkpt lat="48.20763" lon="-3.08683">
        <ele>118</ele>
        <time>2015-05-13T13:13:59Z</time>
      </trkpt>
      <trkpt lat="48.20764" lon="-3.08682">
        <ele>117</ele>
        <time>2015-05-13T13:14:15Z</time>
      </trkpt>
      <trkpt lat="48.20766" lon="-3.08687">
        <ele>117</ele>
        <time>2015-05-13T13:14:31Z</time>
      </trkpt>
      <trkpt lat="48.20764" lon="-3.0869">
        <ele>117</ele>
        <time>2015-05-13T13:14:36Z</time>
      </trkpt>
      <trkpt lat="48.20735" lon="-3.08688">
        <ele>124</ele>
        <time>2015-05-13T13:15:00Z</time>
      </trkpt>
      <trkpt lat="48.20723" lon="-3.08702">
        <ele>124</ele>
        <time>2015-05-13T13:15:23Z</time>
      </trkpt>
      <trkpt lat="48.2071" lon="-3.08696">
        <ele>124</ele>
        <time>2015-05-13T13:15:39Z</time>
      </trkpt>
      <trkpt lat="48.207" lon="-3.08699">
        <ele>124</ele>
        <time>2015-05-13T13:15:54Z</time>
      </trkpt>
      <trkpt lat="48.2062" lon="-3.08691">
        <ele>122</ele>
        <time>2015-05-13T13:17:20Z</time>
      </trkpt>
      <trkpt lat="48.20617" lon="-3.08693">
        <ele>122</ele>
        <time>2015-05-13T13:17:24Z</time>
      </trkpt>
      <trkpt lat="48.2061" lon="-3.08688">
        <ele>123</ele>
        <time>2015-05-13T13:17:34Z</time>
      </trkpt>
      <trkpt lat="48.20609" lon="-3.08689">
        <ele>123</ele>
        <time>2015-05-13T13:17:38Z</time>
      </trkpt>
      <trkpt lat="48.20609" lon="-3.08685">
        <ele>124</ele>
        <time>2015-05-13T13:17:44Z</time>
      </trkpt>
      <trkpt lat="48.20604" lon="-3.08691">
        <ele>125</ele>
        <time>2015-05-13T13:17:59Z</time>
      </trkpt>
      <trkpt lat="48.20605" lon="-3.08692">
        <ele>123</ele>
        <time>2015-05-13T13:18:05Z</time>
      </trkpt>
      <trkpt lat="48.20606" lon="-3.08692">
        <ele>123</ele>
        <time>2015-05-13T13:18:10Z</time>
      </trkpt>
      <trkpt lat="48.20599" lon="-3.08693">
        <ele>123</ele>
        <time>2015-05-13T13:18:21Z</time>
      </trkpt>
      <trkpt lat="48.20601" lon="-3.08691">
        <ele>123</ele>
        <time>2015-05-13T13:18:25Z</time>
      </trkpt>
      <trkpt lat="48.20597" lon="-3.08689">
        <ele>125</ele>
        <time>2015-05-13T13:18:30Z</time>
      </trkpt>
      <trkpt lat="48.20595" lon="-3.0869">
        <ele>127</ele>
        <time>2015-05-13T13:18:32Z</time>
      </trkpt>
      <trkpt lat="48.20598" lon="-3.08697">
        <ele>128</ele>
        <time>2015-05-13T13:18:48Z</time>
      </trkpt>
      <trkpt lat="48.20594" lon="-3.08698">
        <ele>128</ele>
        <time>2015-05-13T13:18:52Z</time>
      </trkpt>
      <trkpt lat="48.20593" lon="-3.08696">
        <ele>128</ele>
        <time>2015-05-13T13:18:55Z</time>
      </trkpt>
      <trkpt lat="48.20517" lon="-3.08687">
        <ele>116</ele>
        <time>2015-05-13T13:20:20Z</time>
      </trkpt>
      <trkpt lat="48.20515" lon="-3.0869">
        <ele>116</ele>
        <time>2015-05-13T13:20:22Z</time>
      </trkpt>
      <trkpt lat="48.20482" lon="-3.08686">
        <ele>110</ele>
        <time>2015-05-13T13:20:53Z</time>
      </trkpt>
      <trkpt lat="48.2047" lon="-3.08699">
        <ele>115</ele>
        <time>2015-05-13T13:21:08Z</time>
      </trkpt>
      <trkpt lat="48.2047" lon="-3.08712">
        <ele>115</ele>
        <time>2015-05-13T13:21:14Z</time>
      </trkpt>
      <trkpt lat="48.20468" lon="-3.08714">
        <ele>115</ele>
        <time>2015-05-13T13:21:16Z</time>
      </trkpt>
      <trkpt lat="48.20467" lon="-3.08731">
        <ele>116</ele>
        <time>2015-05-13T13:21:29Z</time>
      </trkpt>
      <trkpt lat="48.20447" lon="-3.08746">
        <ele>126</ele>
        <time>2015-05-13T13:21:47Z</time>
      </trkpt>
      <trkpt lat="48.20442" lon="-3.08756">
        <ele>129</ele>
        <time>2015-05-13T13:21:56Z</time>
      </trkpt>
      <trkpt lat="48.2044" lon="-3.08756">
        <ele>129</ele>
        <time>2015-05-13T13:21:58Z</time>
      </trkpt>
      <trkpt lat="48.20437" lon="-3.0876">
        <ele>132</ele>
        <time>2015-05-13T13:22:02Z</time>
      </trkpt>
      <trkpt lat="48.20435" lon="-3.08777">
        <ele>134</ele>
        <time>2015-05-13T13:22:13Z</time>
      </trkpt>
      <trkpt lat="48.20433" lon="-3.08776">
        <ele>134</ele>
        <time>2015-05-13T13:22:15Z</time>
      </trkpt>
      <trkpt lat="48.20389" lon="-3.08909">
        <ele>132</ele>
        <time>2015-05-13T13:24:19Z</time>
      </trkpt>
      <trkpt lat="48.20387" lon="-3.0893">
        <ele>131</ele>
        <time>2015-05-13T13:24:34Z</time>
      </trkpt>
      <trkpt lat="48.20343" lon="-3.09021">
        <ele>130</ele>
        <time>2015-05-13T13:25:51Z</time>
      </trkpt>
      <trkpt lat="48.20341" lon="-3.0902">
        <ele>130</ele>
        <time>2015-05-13T13:25:53Z</time>
      </trkpt>
      <trkpt lat="48.20343" lon="-3.09022">
        <ele>118</ele>
        <time>2015-05-13T13:26:08Z</time>
      </trkpt>
      <trkpt lat="48.20338" lon="-3.09029">
        <ele>111</ele>
        <time>2015-05-13T13:26:38Z</time>
      </trkpt>
      <trkpt lat="48.20336" lon="-3.09029">
        <ele>113</ele>
        <time>2015-05-13T13:26:40Z</time>
      </trkpt>
      <trkpt lat="48.20335" lon="-3.09025">
        <ele>121</ele>
        <time>2015-05-13T13:26:48Z</time>
      </trkpt>
      <trkpt lat="48.20333" lon="-3.09024">
        <ele>127</ele>
        <time>2015-05-13T13:26:54Z</time>
      </trkpt>
      <trkpt lat="48.20322" lon="-3.09061">
        <ele>137</ele>
        <time>2015-05-13T13:27:22Z</time>
      </trkpt>
      <trkpt lat="48.20321" lon="-3.09062">
        <ele>138</ele>
        <time>2015-05-13T13:27:24Z</time>
      </trkpt>
      <trkpt lat="48.20307" lon="-3.09108">
        <ele>141</ele>
        <time>2015-05-13T13:27:55Z</time>
      </trkpt>
      <trkpt lat="48.20304" lon="-3.0911">
        <ele>141</ele>
        <time>2015-05-13T13:27:57Z</time>
      </trkpt>
      <trkpt lat="48.20293" lon="-3.09149">
        <ele>144</ele>
        <time>2015-05-13T13:28:30Z</time>
      </trkpt>
      <trkpt lat="48.20297" lon="-3.0915">
        <ele>134</ele>
        <time>2015-05-13T13:28:40Z</time>
      </trkpt>
      <trkpt lat="48.20274" lon="-3.09278">
        <ele>138</ele>
        <time>2015-05-13T13:29:58Z</time>
      </trkpt>
      <trkpt lat="48.20339" lon="-3.09379">
        <ele>132</ele>
        <time>2015-05-13T13:31:53Z</time>
      </trkpt>
      <trkpt lat="48.20343" lon="-3.09377">
        <ele>131</ele>
        <time>2015-05-13T13:32:05Z</time>
      </trkpt>
      <trkpt lat="48.20345" lon="-3.09378">
        <ele>130</ele>
        <time>2015-05-13T13:32:10Z</time>
      </trkpt>
      <trkpt lat="48.20348" lon="-3.09375">
        <ele>127</ele>
        <time>2015-05-13T13:32:17Z</time>
      </trkpt>
      <trkpt lat="48.20356" lon="-3.09378">
        <ele>126</ele>
        <time>2015-05-13T13:32:28Z</time>
      </trkpt>
      <trkpt lat="48.20358" lon="-3.09381">
        <ele>128</ele>
        <time>2015-05-13T13:32:35Z</time>
      </trkpt>
      <trkpt lat="48.20359" lon="-3.09382">
        <ele>131</ele>
        <time>2015-05-13T13:32:38Z</time>
      </trkpt>
      <trkpt lat="48.20356" lon="-3.09377">
        <ele>132</ele>
        <time>2015-05-13T13:32:51Z</time>
      </trkpt>
      <trkpt lat="48.20357" lon="-3.09372">
        <ele>132</ele>
        <time>2015-05-13T13:32:58Z</time>
      </trkpt>
      <trkpt lat="48.2038" lon="-3.09376">
        <ele>126</ele>
        <time>2015-05-13T13:33:18Z</time>
      </trkpt>
      <trkpt lat="48.20419" lon="-3.09366">
        <ele>124</ele>
        <time>2015-05-13T13:33:47Z</time>
      </trkpt>
      <trkpt lat="48.20504" lon="-3.09413">
        <ele>120</ele>
        <time>2015-05-13T13:35:22Z</time>
      </trkpt>
      <trkpt lat="48.20505" lon="-3.09412">
        <ele>120</ele>
        <time>2015-05-13T13:35:24Z</time>
      </trkpt>
      <trkpt lat="48.20522" lon="-3.09428">
        <ele>123</ele>
        <time>2015-05-13T13:35:44Z</time>
      </trkpt>
      <trkpt lat="48.20528" lon="-3.09428">
        <ele>123</ele>
        <time>2015-05-13T13:35:51Z</time>
      </trkpt>
      <trkpt lat="48.20595" lon="-3.09525">
        <ele>113</ele>
        <time>2015-05-13T13:37:21Z</time>
      </trkpt>
      <trkpt lat="48.20593" lon="-3.09543">
        <ele>112</ele>
        <time>2015-05-13T13:37:34Z</time>
      </trkpt>
      <trkpt lat="48.20591" lon="-3.09542">
        <ele>108</ele>
        <time>2015-05-13T13:37:48Z</time>
      </trkpt>
      <trkpt lat="48.20592" lon="-3.09522">
        <ele>111</ele>
        <time>2015-05-13T13:38:52Z</time>
      </trkpt>
      <trkpt lat="48.20605" lon="-3.09517">
        <ele>122</ele>
        <time>2015-05-13T13:39:08Z</time>
      </trkpt>
      <trkpt lat="48.20611" lon="-3.09546">
        <ele>124</ele>
        <time>2015-05-13T13:39:24Z</time>
      </trkpt>
      <trkpt lat="48.20615" lon="-3.09552">
        <ele>124</ele>
        <time>2015-05-13T13:39:31Z</time>
      </trkpt>
      <trkpt lat="48.20618" lon="-3.09551">
        <ele>124</ele>
        <time>2015-05-13T13:39:36Z</time>
      </trkpt>
      <trkpt lat="48.20639" lon="-3.09591">
        <ele>131</ele>
        <time>2015-05-13T13:40:24Z</time>
      </trkpt>
      <trkpt lat="48.20654" lon="-3.09598">
        <ele>128</ele>
        <time>2015-05-13T13:40:36Z</time>
      </trkpt>
      <trkpt lat="48.20665" lon="-3.09636">
        <ele>126</ele>
        <time>2015-05-13T13:41:02Z</time>
      </trkpt>
      <trkpt lat="48.20673" lon="-3.09637">
        <ele>123</ele>
        <time>2015-05-13T13:41:17Z</time>
      </trkpt>
      <trkpt lat="48.20674" lon="-3.09655">
        <ele>119</ele>
        <time>2015-05-13T13:41:37Z</time>
      </trkpt>
      <trkpt lat="48.20675" lon="-3.09656">
        <ele>123</ele>
        <time>2015-05-13T13:41:41Z</time>
      </trkpt>
      <trkpt lat="48.20687" lon="-3.09858">
        <ele>127</ele>
        <time>2015-05-13T13:44:27Z</time>
      </trkpt>
      <trkpt lat="48.20682" lon="-3.09862">
        <ele>127</ele>
        <time>2015-05-13T13:44:41Z</time>
      </trkpt>
      <trkpt lat="48.2068" lon="-3.09862">
        <ele>127</ele>
        <time>2015-05-13T13:44:45Z</time>
      </trkpt>
      <trkpt lat="48.20678" lon="-3.09865">
        <ele>127</ele>
        <time>2015-05-13T13:44:49Z</time>
      </trkpt>
      <trkpt lat="48.20669" lon="-3.09863">
        <ele>124</ele>
        <time>2015-05-13T13:44:57Z</time>
      </trkpt>
      <trkpt lat="48.20671" lon="-3.09897">
        <ele>114</ele>
        <time>2015-05-13T13:45:17Z</time>
      </trkpt>
      <trkpt lat="48.20673" lon="-3.09899">
        <ele>114</ele>
        <time>2015-05-13T13:45:19Z</time>
      </trkpt>
      <trkpt lat="48.20678" lon="-3.09901">
        <ele>114</ele>
        <time>2015-05-13T13:45:26Z</time>
      </trkpt>
      <trkpt lat="48.20681" lon="-3.09899">
        <ele>114</ele>
        <time>2015-05-13T13:45:30Z</time>
      </trkpt>
      <trkpt lat="48.20683" lon="-3.09901">
        <ele>114</ele>
        <time>2015-05-13T13:45:34Z</time>
      </trkpt>
      <trkpt lat="48.2068" lon="-3.09907">
        <ele>118</ele>
        <time>2015-05-13T13:45:44Z</time>
      </trkpt>
      <trkpt lat="48.20684" lon="-3.09917">
        <ele>120</ele>
        <time>2015-05-13T13:45:52Z</time>
      </trkpt>
      <trkpt lat="48.20683" lon="-3.09958">
        <ele>121</ele>
        <time>2015-05-13T13:46:24Z</time>
      </trkpt>
      <trkpt lat="48.20684" lon="-3.09957">
        <ele>122</ele>
        <time>2015-05-13T13:46:29Z</time>
      </trkpt>
      <trkpt lat="48.20686" lon="-3.09958">
        <ele>123</ele>
        <time>2015-05-13T13:46:32Z</time>
      </trkpt>
      <trkpt lat="48.20694" lon="-3.09998">
        <ele>128</ele>
        <time>2015-05-13T13:47:11Z</time>
      </trkpt>
      <trkpt lat="48.20594" lon="-3.10447">
        <ele>131</ele>
        <time>2015-05-13T13:52:59Z</time>
      </trkpt>
      <trkpt lat="48.20637" lon="-3.10602">
        <ele>128</ele>
        <time>2015-05-13T13:54:54Z</time>
      </trkpt>
      <trkpt lat="48.20745" lon="-3.10594">
        <ele>137</ele>
        <time>2015-05-13T13:56:52Z</time>
      </trkpt>
      <trkpt lat="48.20745" lon="-3.10592">
        <ele>137</ele>
        <time>2015-05-13T13:56:57Z</time>
      </trkpt>
      <trkpt lat="48.20763" lon="-3.10601">
        <ele>141</ele>
        <time>2015-05-13T13:57:23Z</time>
      </trkpt>
      <trkpt lat="48.2087" lon="-3.10698">
        <ele>116</ele>
        <time>2015-05-13T13:59:00Z</time>
      </trkpt>
      <trkpt lat="48.20875" lon="-3.10717">
        <ele>116</ele>
        <time>2015-05-13T13:59:12Z</time>
      </trkpt>
      <trkpt lat="48.20874" lon="-3.10719">
        <ele>116</ele>
        <time>2015-05-13T13:59:15Z</time>
      </trkpt>
      <trkpt lat="48.2089" lon="-3.10738">
        <ele>120</ele>
        <time>2015-05-13T13:59:31Z</time>
      </trkpt>
      <trkpt lat="48.20834" lon="-3.10915">
        <ele>115</ele>
        <time>2015-05-13T14:01:46Z</time>
      </trkpt>
      <trkpt lat="48.2077" lon="-3.10966">
        <ele>119</ele>
        <time>2015-05-13T14:03:01Z</time>
      </trkpt>
      <trkpt lat="48.20768" lon="-3.10966">
        <ele>119</ele>
        <time>2015-05-13T14:03:03Z</time>
      </trkpt>
      <trkpt lat="48.20752" lon="-3.10982">
        <ele>119</ele>
        <time>2015-05-13T14:03:20Z</time>
      </trkpt>
      <trkpt lat="48.20745" lon="-3.10981">
        <ele>119</ele>
        <time>2015-05-13T14:03:26Z</time>
      </trkpt>
      <trkpt lat="48.20731" lon="-3.10991">
        <ele>119</ele>
        <time>2015-05-13T14:03:38Z</time>
      </trkpt>
      <trkpt lat="48.20714" lon="-3.10983">
        <ele>119</ele>
        <time>2015-05-13T14:03:53Z</time>
      </trkpt>
      <trkpt lat="48.20699" lon="-3.11007">
        <ele>120</ele>
        <time>2015-05-13T14:04:34Z</time>
      </trkpt>
      <trkpt lat="48.20699" lon="-3.11005">
        <ele>120</ele>
        <time>2015-05-13T14:04:50Z</time>
      </trkpt>
      <trkpt lat="48.207" lon="-3.11004">
        <ele>120</ele>
        <time>2015-05-13T14:05:05Z</time>
      </trkpt>
      <trkpt lat="48.20692" lon="-3.11008">
        <ele>120</ele>
        <time>2015-05-13T14:05:25Z</time>
      </trkpt>
      <trkpt lat="48.20691" lon="-3.11008">
        <ele>120</ele>
        <time>2015-05-13T14:05:27Z</time>
      </trkpt>
      <trkpt lat="48.20599" lon="-3.11044">
        <ele>127</ele>
        <time>2015-05-13T14:06:57Z</time>
      </trkpt>
      <trkpt lat="48.20588" lon="-3.11053">
        <ele>127</ele>
        <time>2015-05-13T14:07:06Z</time>
      </trkpt>
      <trkpt lat="48.20574" lon="-3.11083">
        <ele>122</ele>
        <time>2015-05-13T14:07:25Z</time>
      </trkpt>
      <trkpt lat="48.20737" lon="-3.11529">
        <ele>125</ele>
        <time>2015-05-13T14:12:08Z</time>
      </trkpt>
      <trkpt lat="48.20858" lon="-3.11616">
        <ele>120</ele>
        <time>2015-05-13T14:13:54Z</time>
      </trkpt>
      <trkpt lat="48.20859" lon="-3.11615">
        <ele>120</ele>
        <time>2015-05-13T14:13:56Z</time>
      </trkpt>
      <trkpt lat="48.20914" lon="-3.11605">
        <ele>129</ele>
        <time>2015-05-13T14:14:37Z</time>
      </trkpt>
      <trkpt lat="48.20916" lon="-3.11598">
        <ele>129</ele>
        <time>2015-05-13T14:14:43Z</time>
      </trkpt>
      <trkpt lat="48.20937" lon="-3.11584">
        <ele>133</ele>
        <time>2015-05-13T14:14:58Z</time>
      </trkpt>
      <trkpt lat="48.20972" lon="-3.11584">
        <ele>136</ele>
        <time>2015-05-13T14:15:25Z</time>
      </trkpt>
      <trkpt lat="48.21065" lon="-3.12755">
        <ele>122</ele>
        <time>2015-05-13T14:25:41Z</time>
      </trkpt>
      <trkpt lat="48.21066" lon="-3.12754">
        <ele>124</ele>
        <time>2015-05-13T14:25:44Z</time>
      </trkpt>
      <trkpt lat="48.21099" lon="-3.1283">
        <ele>128</ele>
        <time>2015-05-13T14:26:25Z</time>
      </trkpt>
      <trkpt lat="48.211" lon="-3.12829">
        <ele>128</ele>
        <time>2015-05-13T14:26:28Z</time>
      </trkpt>
      <trkpt lat="48.21099" lon="-3.12828">
        <ele>128</ele>
        <time>2015-05-13T14:26:32Z</time>
      </trkpt>
      <trkpt lat="48.21138" lon="-3.12875">
        <ele>124</ele>
        <time>2015-05-13T14:27:07Z</time>
      </trkpt>
      <trkpt lat="48.21421" lon="-3.12816">
        <ele>125</ele>
        <time>2015-05-13T14:33:49Z</time>
      </trkpt>
    </trkseg>
  </trk>
</gpx>